CMA840 LFPG-ZLXY
Flight info
| Callsign | CMA840 |
|---|---|
| Flight time | 10h 12m |
| Altitude | 29000 |
| Route | LANVI DCT BEGAR DCT TRA DCT GAMSA N871 MADEB N606 ELMEM L607 GEDSO DCT EVAXI DCT LUMUS DCT BERTA DCT PODET DCT VBA DCT ADULA DCT RISTU DCT ETIDA DCT INBOL DCT DELIN DCT TUNVO DCT UDROS/N0490F310 DCT CRM DCT ROLIN N644 LAGAS M747 SUBUT T916 LEYLA N161 GASBI/K0902F310 N161 RITET/K0891F330 N161 SARIN/K0882S1010 A368 FKG W192 ESDEX W191 DNC W565 BIGUX W214 HO |
| Aircraft | B77L/H-SDE1E2E3GHIJ1J3J4J5M1P2RWXYZ/LB2D1G1 |
Departure
| Time | 2026-04-13 16:22 |
|---|---|
| Airport | Charles de Gaulle International Airport (LFPG) |
Arrival
| Time | 2026-04-14 02:34 |
|---|---|
| Airport | Xi'an Xianyang International Airport (ZLXY) |
| Time | Latitude | Longitude | Altitude | Speed | Heading |
|---|---|---|---|---|---|
| 2026-04-13 15:43 | 48.99435 | 2.53186 | 359 ft | 0 kts | 265° |
| 2026-04-13 16:03 | 48.99435 | 2.53187 | 359 ft | 0 kts | 265° |
| 2026-04-13 16:08 | 48.99435 | 2.53189 | 359 ft | 2 kts | 265° |
| 2026-04-13 16:08 | 48.99437 | 2.53228 | 361 ft | 4 kts | 265° |
| 2026-04-13 16:08 | 48.99439 | 2.53256 | 366 ft | 4 kts | 265° |
| 2026-04-13 16:09 | 48.99442 | 2.53296 | 359 ft | 4 kts | 256° |
| 2026-04-13 16:09 | 48.99447 | 2.53325 | 362 ft | 4 kts | 315° |
| 2026-04-13 16:09 | 48.99451 | 2.53324 | 359 ft | 4 kts | 355° |
| 2026-04-13 16:09 | 48.99424 | 2.53328 | 363 ft | 0 kts | 355° |
| 2026-04-13 16:12 | 48.99431 | 2.53327 | 359 ft | 4 kts | 355° |
| 2026-04-13 16:12 | 48.99491 | 2.53319 | 363 ft | 13 kts | 355° |
| 2026-04-13 16:12 | 48.99594 | 2.53330 | 365 ft | 12 kts | 36° |
| 2026-04-13 16:12 | 48.99662 | 2.53457 | 363 ft | 19 kts | 43° |
| 2026-04-13 16:13 | 48.99776 | 2.53610 | 359 ft | 20 kts | 41° |
| 2026-04-13 16:13 | 48.99892 | 2.53746 | 362 ft | 23 kts | 69° |
| 2026-04-13 16:13 | 48.99910 | 2.54022 | 361 ft | 29 kts | 85° |
| 2026-04-13 16:13 | 48.99925 | 2.54329 | 365 ft | 29 kts | 86° |
| 2026-04-13 16:14 | 48.99941 | 2.54636 | 359 ft | 29 kts | 85° |
| 2026-04-13 16:14 | 48.99958 | 2.54943 | 362 ft | 29 kts | 85° |
| 2026-04-13 16:14 | 48.99975 | 2.55249 | 363 ft | 29 kts | 84° |
| 2026-04-13 16:14 | 49.00013 | 2.55548 | 363 ft | 29 kts | 64° |
| 2026-04-13 16:15 | 48.99964 | 2.55695 | 359 ft | 17 kts | 154° |
| 2026-04-13 16:15 | 48.99907 | 2.55846 | 358 ft | 17 kts | 103° |
| 2026-04-13 16:15 | 48.99890 | 2.56022 | 358 ft | 17 kts | 87° |
| 2026-04-13 16:15 | 48.99899 | 2.56201 | 365 ft | 17 kts | 85° |
| 2026-04-13 16:16 | 48.99909 | 2.56382 | 359 ft | 18 kts | 85° |
| 2026-04-13 16:16 | 48.99919 | 2.56591 | 360 ft | 22 kts | 86° |
| 2026-04-13 16:16 | 48.99931 | 2.56850 | 358 ft | 27 kts | 85° |
| 2026-04-13 16:16 | 48.99949 | 2.57154 | 358 ft | 31 kts | 85° |
| 2026-04-13 16:17 | 48.99966 | 2.57497 | 365 ft | 33 kts | 85° |
| 2026-04-13 16:17 | 48.99985 | 2.57825 | 365 ft | 30 kts | 85° |
| 2026-04-13 16:17 | 49.00004 | 2.58142 | 358 ft | 30 kts | 85° |
| 2026-04-13 16:17 | 49.00019 | 2.58460 | 359 ft | 30 kts | 86° |
| 2026-04-13 16:18 | 49.00035 | 2.58776 | 360 ft | 30 kts | 85° |
| 2026-04-13 16:18 | 49.00052 | 2.59094 | 360 ft | 30 kts | 85° |
| 2026-04-13 16:18 | 49.00069 | 2.59410 | 362 ft | 30 kts | 85° |
| 2026-04-13 16:18 | 49.00086 | 2.59728 | 364 ft | 30 kts | 85° |
| 2026-04-13 16:19 | 49.00103 | 2.60035 | 366 ft | 25 kts | 85° |
| 2026-04-13 16:19 | 49.00059 | 2.60231 | 366 ft | 19 kts | 170° |
| 2026-04-13 16:19 | 48.99948 | 2.60238 | 366 ft | 0 kts | 183° |
| 2026-04-13 16:20 | 48.99929 | 2.60234 | 367 ft | 9 kts | 192° |
| 2026-04-13 16:20 | 48.99837 | 2.60136 | 365 ft | 20 kts | 245° |
| 2026-04-13 16:21 | 48.99805 | 2.59680 | 361 ft | 79 kts | 265° |
| 2026-04-13 16:21 | 48.99740 | 2.58468 | 359 ft | 149 kts | 265° |
| 2026-04-13 16:21 | 48.99653 | 2.56578 | 401 ft | 200 kts | 267° |
| 2026-04-13 16:21 | 48.99548 | 2.54446 | 987 ft | 196 kts | 266° |
| 2026-04-13 16:22 | 48.99435 | 2.52393 | 1708 ft | 198 kts | 266° |
| 2026-04-13 16:22 | 48.99315 | 2.50298 | 2253 ft | 201 kts | 266° |
| 2026-04-13 16:22 | 48.99059 | 2.45902 | 2997 ft | 212 kts | 266° |
| 2026-04-13 16:23 | 48.98936 | 2.43642 | 3398 ft | 216 kts | 266° |
| 2026-04-13 16:23 | 48.98809 | 2.41287 | 3608 ft | 231 kts | 265° |
| 2026-04-13 16:23 | 48.98667 | 2.38766 | 3885 ft | 244 kts | 265° |
| 2026-04-13 16:23 | 48.98522 | 2.36163 | 4155 ft | 260 kts | 265° |
| 2026-04-13 16:24 | 48.98365 | 2.33364 | 4552 ft | 269 kts | 265° |
| 2026-04-13 16:24 | 48.98205 | 2.30490 | 5075 ft | 275 kts | 265° |
| 2026-04-13 16:24 | 48.98042 | 2.27576 | 5716 ft | 277 kts | 265° |
| 2026-04-13 16:24 | 48.97848 | 2.24648 | 6322 ft | 277 kts | 258° |
| 2026-04-13 16:25 | 48.97039 | 2.21988 | 6722 ft | 284 kts | 227° |
| 2026-04-13 16:25 | 48.95423 | 2.20279 | 7256 ft | 287 kts | 199° |
| 2026-04-13 16:25 | 48.93444 | 2.19892 | 7815 ft | 290 kts | 173° |
| 2026-04-13 16:25 | 48.91493 | 2.20667 | 8276 ft | 292 kts | 161° |
| 2026-04-13 16:26 | 48.89545 | 2.21686 | 8759 ft | 298 kts | 161° |
| 2026-04-13 16:26 | 48.87603 | 2.22689 | 9337 ft | 299 kts | 162° |
| 2026-04-13 16:26 | 48.85627 | 2.23698 | 9916 ft | 300 kts | 162° |
| 2026-04-13 16:26 | 48.83628 | 2.24709 | 10394 ft | 307 kts | 163° |
| 2026-04-13 16:27 | 48.81664 | 2.26132 | 10459 ft | 323 kts | 140° |
| 2026-04-13 16:27 | 48.80258 | 2.28870 | 10609 ft | 341 kts | 112° |
| 2026-04-13 16:27 | 48.79830 | 2.32476 | 10756 ft | 357 kts | 86° |
| 2026-04-13 16:27 | 48.80103 | 2.36273 | 10906 ft | 368 kts | 85° |
| 2026-04-13 16:28 | 48.80132 | 2.40219 | 11248 ft | 379 kts | 95° |
| 2026-04-13 16:28 | 48.79777 | 2.44208 | 11783 ft | 383 kts | 102° |
| 2026-04-13 16:28 | 48.79233 | 2.48187 | 12417 ft | 386 kts | 102° |
| 2026-04-13 16:28 | 48.78697 | 2.52180 | 13051 ft | 388 kts | 103° |
| 2026-04-13 16:29 | 48.78165 | 2.56211 | 13651 ft | 391 kts | 103° |
| 2026-04-13 16:29 | 48.77634 | 2.60271 | 14238 ft | 393 kts | 103° |
| 2026-04-13 16:29 | 48.77099 | 2.64355 | 14800 ft | 396 kts | 104° |
| 2026-04-13 16:29 | 48.76558 | 2.68480 | 15354 ft | 400 kts | 104° |
| 2026-04-13 16:30 | 48.76012 | 2.72635 | 15894 ft | 403 kts | 105° |
| 2026-04-13 16:30 | 48.75470 | 2.76749 | 16438 ft | 405 kts | 105° |
| 2026-04-13 16:32 | 48.71495 | 3.06585 | 19901 ft | 424 kts | 107° |
| 2026-04-13 16:32 | 48.70902 | 3.10978 | 20353 ft | 427 kts | 107° |
| 2026-04-13 16:32 | 48.70303 | 3.15400 | 20797 ft | 430 kts | 107° |
| 2026-04-13 16:32 | 48.69698 | 3.19850 | 21211 ft | 433 kts | 107° |
| 2026-04-13 16:33 | 48.69086 | 3.24345 | 21618 ft | 436 kts | 107° |
| 2026-04-13 16:33 | 48.68678 | 3.27333 | 21891 ft | 438 kts | 107° |
| 2026-04-13 16:34 | 48.66121 | 3.45939 | 23493 ft | 449 kts | 107° |
| 2026-04-13 16:34 | 48.65904 | 3.47506 | 23607 ft | 451 kts | 107° |
| 2026-04-13 16:35 | 48.64694 | 3.56213 | 24271 ft | 456 kts | 107° |
| 2026-04-13 16:35 | 48.62159 | 3.74321 | 25688 ft | 463 kts | 107° |
| 2026-04-13 16:36 | 48.61485 | 3.79100 | 26069 ft | 466 kts | 107° |
| 2026-04-13 16:36 | 48.60809 | 3.83895 | 26430 ft | 467 kts | 107° |
| 2026-04-13 16:36 | 48.60126 | 3.88717 | 26765 ft | 470 kts | 107° |
| 2026-04-13 16:36 | 48.59436 | 3.93553 | 27085 ft | 472 kts | 107° |
| 2026-04-13 16:37 | 48.58740 | 3.98413 | 27399 ft | 475 kts | 107° |
| 2026-04-13 16:37 | 48.58043 | 4.03250 | 27704 ft | 477 kts | 107° |
| 2026-04-13 16:37 | 48.57338 | 4.08149 | 28019 ft | 479 kts | 107° |
| 2026-04-13 16:37 | 48.56624 | 4.13092 | 28307 ft | 481 kts | 107° |
| 2026-04-13 16:38 | 48.55908 | 4.18032 | 28586 ft | 483 kts | 107° |
| 2026-04-13 16:38 | 48.55180 | 4.23012 | 28836 ft | 485 kts | 107° |
| 2026-04-13 16:38 | 48.54445 | 4.28010 | 28925 ft | 490 kts | 107° |
| 2026-04-13 16:39 | 48.52974 | 4.38073 | 28986 ft | 492 kts | 107° |
| 2026-04-13 16:39 | 48.51688 | 4.46862 | 29004 ft | 492 kts | 107° |
| 2026-04-13 16:40 | 48.49956 | 4.58521 | 29003 ft | 493 kts | 107° |
| 2026-04-13 16:40 | 48.48700 | 4.66927 | 28999 ft | 493 kts | 107° |
| 2026-04-13 16:41 | 48.47187 | 4.76994 | 29002 ft | 492 kts | 108° |
| 2026-04-13 16:41 | 48.45669 | 4.87034 | 29003 ft | 491 kts | 108° |
| 2026-04-13 16:42 | 48.44143 | 4.97039 | 28986 ft | 491 kts | 108° |
| 2026-04-13 16:42 | 48.42612 | 5.07048 | 29004 ft | 490 kts | 108° |
| 2026-04-13 16:43 | 48.41076 | 5.17040 | 28993 ft | 490 kts | 108° |
| 2026-04-13 16:43 | 48.39522 | 5.27013 | 29002 ft | 490 kts | 108° |
| 2026-04-13 16:44 | 48.37973 | 5.37004 | 28994 ft | 490 kts | 108° |
| 2026-04-13 16:44 | 48.36411 | 5.46938 | 29003 ft | 491 kts | 108° |
| 2026-04-13 16:45 | 48.34822 | 5.56937 | 29002 ft | 491 kts | 108° |
| 2026-04-13 16:45 | 48.33240 | 5.66933 | 28998 ft | 491 kts | 108° |
| 2026-04-13 16:46 | 48.31654 | 5.76858 | 28998 ft | 490 kts | 108° |
| 2026-04-13 16:46 | 48.29856 | 5.86708 | 28997 ft | 487 kts | 112° |
| 2026-04-13 16:47 | 48.27691 | 5.96322 | 28997 ft | 486 kts | 114° |
| 2026-04-13 16:47 | 48.25489 | 6.05960 | 29007 ft | 488 kts | 113° |
| 2026-04-13 16:48 | 48.23349 | 6.15581 | 28998 ft | 488 kts | 113° |
| 2026-04-13 16:48 | 48.21209 | 6.25237 | 28998 ft | 487 kts | 113° |
| 2026-04-13 16:49 | 48.19077 | 6.34807 | 29004 ft | 486 kts | 113° |
| 2026-04-13 16:49 | 48.16942 | 6.44452 | 29000 ft | 486 kts | 113° |
| 2026-04-13 16:50 | 48.14798 | 6.54041 | 28992 ft | 484 kts | 113° |
| 2026-04-13 16:50 | 48.12649 | 6.63562 | 28997 ft | 485 kts | 113° |
| 2026-04-13 16:51 | 48.10480 | 6.73159 | 29007 ft | 487 kts | 114° |
| 2026-04-13 16:51 | 48.08300 | 6.82763 | 28994 ft | 488 kts | 113° |
| 2026-04-13 16:52 | 48.06111 | 6.92368 | 29004 ft | 489 kts | 113° |
| 2026-04-13 16:52 | 48.03903 | 7.01988 | 28994 ft | 488 kts | 114° |
| 2026-04-13 16:53 | 48.01704 | 7.11519 | 28997 ft | 488 kts | 114° |
| 2026-04-13 16:53 | 47.99496 | 7.21077 | 29005 ft | 486 kts | 114° |
| 2026-04-13 16:54 | 47.97284 | 7.30628 | 28995 ft | 486 kts | 114° |
| 2026-04-13 16:54 | 47.95055 | 7.40154 | 28998 ft | 485 kts | 114° |
| 2026-04-13 16:55 | 47.92845 | 7.49610 | 28997 ft | 485 kts | 114° |
| 2026-04-13 16:55 | 47.90607 | 7.59118 | 29004 ft | 486 kts | 114° |
| 2026-04-13 16:56 | 47.88312 | 7.68357 | 28999 ft | 486 kts | 115° |
| 2026-04-13 16:56 | 47.85916 | 7.77762 | 29008 ft | 485 kts | 116° |
| 2026-04-13 16:57 | 47.83542 | 7.87072 | 28997 ft | 486 kts | 115° |
| 2026-04-13 16:57 | 47.81130 | 7.96531 | 28995 ft | 485 kts | 115° |
| 2026-04-13 16:58 | 47.78750 | 8.05863 | 28998 ft | 485 kts | 115° |
| 2026-04-13 16:58 | 47.76347 | 8.15252 | 29009 ft | 484 kts | 115° |
| 2026-04-13 16:59 | 47.73966 | 8.24540 | 28998 ft | 484 kts | 116° |
| 2026-04-13 16:59 | 47.71539 | 8.33906 | 28999 ft | 484 kts | 116° |
| 2026-04-13 17:00 | 47.69124 | 8.43223 | 29003 ft | 484 kts | 116° |
| 2026-04-13 17:00 | 47.66865 | 8.52618 | 28996 ft | 487 kts | 113° |
| 2026-04-13 17:01 | 47.64756 | 8.62170 | 29002 ft | 488 kts | 113° |
| 2026-04-13 17:01 | 47.62625 | 8.71735 | 29006 ft | 488 kts | 113° |
| 2026-04-13 17:02 | 47.60460 | 8.81265 | 28995 ft | 488 kts | 114° |
| 2026-04-13 17:02 | 47.58260 | 8.90784 | 28994 ft | 487 kts | 114° |
| 2026-04-13 17:03 | 47.56067 | 9.00212 | 28996 ft | 486 kts | 114° |
| 2026-04-13 17:03 | 47.53869 | 9.09697 | 28993 ft | 484 kts | 114° |
| 2026-04-13 17:04 | 47.51692 | 9.19084 | 28991 ft | 484 kts | 114° |
| 2026-04-13 17:04 | 47.49483 | 9.28504 | 28995 ft | 484 kts | 114° |
| 2026-04-13 17:05 | 47.47265 | 9.37926 | 29012 ft | 486 kts | 114° |
| 2026-04-13 17:05 | 47.45041 | 9.47360 | 28995 ft | 485 kts | 114° |
| 2026-04-13 17:06 | 47.42807 | 9.56769 | 29007 ft | 486 kts | 114° |
| 2026-04-13 17:06 | 47.40651 | 9.66178 | 29009 ft | 490 kts | 110° |
| 2026-04-13 17:07 | 47.39322 | 9.76121 | 29006 ft | 495 kts | 105° |
| 2026-04-13 17:07 | 47.38071 | 9.86126 | 28980 ft | 495 kts | 105° |
| 2026-04-13 17:08 | 47.36776 | 9.96045 | 28992 ft | 492 kts | 105° |
| 2026-04-13 17:08 | 47.35477 | 10.05885 | 29007 ft | 493 kts | 105° |
| 2026-04-13 17:09 | 47.34154 | 10.15823 | 28997 ft | 494 kts | 105° |
| 2026-04-13 17:09 | 47.32823 | 10.25744 | 28995 ft | 493 kts | 105° |
| 2026-04-13 17:10 | 47.31489 | 10.35653 | 29009 ft | 493 kts | 106° |
| 2026-04-13 17:10 | 47.30166 | 10.45542 | 29006 ft | 494 kts | 106° |
| 2026-04-13 17:11 | 47.28821 | 10.55475 | 29007 ft | 494 kts | 106° |
| 2026-04-13 17:11 | 47.27394 | 10.65351 | 28990 ft | 490 kts | 107° |
| 2026-04-13 17:12 | 47.25871 | 10.75156 | 28997 ft | 490 kts | 108° |
| 2026-04-13 17:12 | 47.24347 | 10.84908 | 29014 ft | 488 kts | 108° |
| 2026-04-13 17:13 | 47.22830 | 10.94663 | 29009 ft | 489 kts | 108° |
| 2026-04-13 17:13 | 47.21320 | 11.04395 | 28988 ft | 491 kts | 108° |
| 2026-04-13 17:14 | 47.19783 | 11.14192 | 28995 ft | 491 kts | 108° |
| 2026-04-13 17:14 | 47.18246 | 11.23985 | 29005 ft | 491 kts | 108° |
| 2026-04-13 17:15 | 47.16693 | 11.33795 | 29006 ft | 491 kts | 108° |
| 2026-04-13 17:15 | 47.15144 | 11.43503 | 29002 ft | 491 kts | 108° |
| 2026-04-13 17:16 | 47.13570 | 11.53275 | 29013 ft | 490 kts | 108° |
| 2026-04-13 17:16 | 47.12004 | 11.63033 | 28992 ft | 491 kts | 108° |
| 2026-04-13 17:17 | 47.10419 | 11.72802 | 28991 ft | 491 kts | 108° |
| 2026-04-13 17:17 | 47.08838 | 11.82480 | 28981 ft | 489 kts | 108° |
| 2026-04-13 17:18 | 47.07224 | 11.92179 | 28993 ft | 488 kts | 109° |
| 2026-04-13 17:18 | 47.05510 | 12.01806 | 28991 ft | 488 kts | 109° |
| 2026-04-13 17:19 | 47.03771 | 12.11456 | 29006 ft | 490 kts | 109° |
| 2026-04-13 17:19 | 47.02032 | 12.21120 | 29016 ft | 489 kts | 109° |
| 2026-04-13 17:20 | 47.00292 | 12.30759 | 28985 ft | 489 kts | 109° |
| 2026-04-13 17:20 | 46.98558 | 12.40386 | 29001 ft | 489 kts | 109° |
| 2026-04-13 17:21 | 46.96815 | 12.49968 | 29001 ft | 489 kts | 110° |
| 2026-04-13 17:21 | 46.95057 | 12.59601 | 29015 ft | 489 kts | 110° |
| 2026-04-13 17:22 | 46.93286 | 12.69226 | 29017 ft | 489 kts | 109° |
| 2026-04-13 17:22 | 46.91511 | 12.78848 | 29009 ft | 490 kts | 110° |
| 2026-04-13 17:23 | 46.89718 | 12.88474 | 29001 ft | 491 kts | 110° |
| 2026-04-13 17:23 | 46.87931 | 12.98105 | 29008 ft | 491 kts | 110° |
| 2026-04-13 17:24 | 46.86130 | 13.07651 | 28993 ft | 489 kts | 110° |
| 2026-04-13 17:24 | 46.84328 | 13.17221 | 28997 ft | 488 kts | 110° |
| 2026-04-13 17:25 | 46.82522 | 13.26766 | 28995 ft | 486 kts | 110° |
| 2026-04-13 17:25 | 46.81017 | 13.34677 | 28995 ft | 485 kts | 110° |
| 2026-04-13 17:26 | 46.79200 | 13.44194 | 28998 ft | 486 kts | 110° |
| 2026-04-13 17:26 | 46.77289 | 13.53669 | 29008 ft | 484 kts | 115° |
| 2026-04-13 17:27 | 46.73324 | 13.67190 | 29003 ft | 484 kts | 118° |
| 2026-04-13 17:27 | 46.70650 | 13.76160 | 28996 ft | 487 kts | 118° |
| 2026-04-13 17:28 | 46.67982 | 13.85216 | 29007 ft | 486 kts | 118° |
| 2026-04-13 17:28 | 46.65350 | 13.94159 | 28996 ft | 487 kts | 118° |
| 2026-04-13 17:29 | 46.62683 | 14.03193 | 29001 ft | 484 kts | 118° |
| 2026-04-13 17:29 | 46.60036 | 14.12122 | 28988 ft | 483 kts | 118° |
| 2026-04-13 17:30 | 46.57371 | 14.21080 | 28990 ft | 481 kts | 118° |
| 2026-04-13 17:30 | 46.54715 | 14.30014 | 29000 ft | 481 kts | 118° |
| 2026-04-13 17:31 | 46.52061 | 14.38951 | 29003 ft | 482 kts | 118° |
| 2026-04-13 17:31 | 46.49390 | 14.47884 | 28995 ft | 483 kts | 118° |
| 2026-04-13 17:32 | 46.46709 | 14.56814 | 28996 ft | 483 kts | 118° |
| 2026-04-13 17:32 | 46.44032 | 14.65797 | 29004 ft | 485 kts | 117° |
| 2026-04-13 17:33 | 46.41542 | 14.74842 | 28987 ft | 485 kts | 116° |
| 2026-04-13 17:33 | 46.39102 | 14.83950 | 28994 ft | 485 kts | 116° |
| 2026-04-13 17:34 | 46.35362 | 14.97596 | 28997 ft | 486 kts | 116° |
| 2026-04-13 17:35 | 46.32836 | 15.06675 | 29000 ft | 486 kts | 116° |
| 2026-04-13 17:35 | 46.30316 | 15.15742 | 28996 ft | 485 kts | 117° |
| 2026-04-13 17:36 | 46.27793 | 15.24784 | 29001 ft | 484 kts | 116° |
| 2026-04-13 17:36 | 46.25282 | 15.33741 | 29006 ft | 484 kts | 117° |
| 2026-04-13 17:37 | 46.22741 | 15.42756 | 28997 ft | 484 kts | 117° |
| 2026-04-13 17:37 | 46.20198 | 15.51777 | 29003 ft | 483 kts | 117° |
| 2026-04-13 17:38 | 46.17666 | 15.60700 | 29003 ft | 483 kts | 117° |
| 2026-04-13 17:38 | 46.15162 | 15.69701 | 28997 ft | 484 kts | 116° |
| 2026-04-13 17:39 | 46.12717 | 15.78770 | 29007 ft | 485 kts | 116° |
| 2026-04-13 17:39 | 46.10283 | 15.87823 | 28997 ft | 484 kts | 116° |
| 2026-04-13 17:40 | 46.07817 | 15.96869 | 29004 ft | 485 kts | 116° |
| 2026-04-13 17:40 | 46.05345 | 16.05896 | 29006 ft | 485 kts | 116° |
| 2026-04-13 17:41 | 46.02874 | 16.14874 | 28996 ft | 486 kts | 116° |
| 2026-04-13 17:41 | 46.00449 | 16.23665 | 28992 ft | 488 kts | 111° |
| 2026-04-13 17:42 | 45.97917 | 16.32800 | 29013 ft | 496 kts | 112° |
| 2026-04-13 17:42 | 45.95351 | 16.42038 | 32015 ft | 497 kts | 115° |
| 2026-04-13 17:42 | 45.94075 | 16.46619 | 28832 ft | 487 kts | 115° |
| 2026-04-13 17:43 | 45.92820 | 16.51117 | 28879 ft | 482 kts | 114° |
| 2026-04-13 17:43 | 45.90322 | 16.60020 | 28927 ft | 484 kts | 114° |
| 2026-04-13 17:44 | 45.87788 | 16.69017 | 28925 ft | 486 kts | 114° |
| 2026-04-13 17:44 | 45.85242 | 16.78034 | 28920 ft | 487 kts | 114° |
| 2026-04-13 17:45 | 45.82706 | 16.86989 | 28925 ft | 487 kts | 114° |
| 2026-04-13 17:45 | 45.80142 | 16.96008 | 28927 ft | 488 kts | 114° |
| 2026-04-13 17:46 | 45.77578 | 17.04997 | 28927 ft | 488 kts | 114° |
| 2026-04-13 17:46 | 45.75000 | 17.14002 | 28923 ft | 488 kts | 114° |
| 2026-04-13 17:47 | 45.72329 | 17.22867 | 28924 ft | 488 kts | 116° |
| 2026-04-13 17:47 | 45.69533 | 17.31726 | 28939 ft | 488 kts | 116° |
| 2026-04-13 17:48 | 45.66739 | 17.40571 | 28943 ft | 488 kts | 116° |
| 2026-04-13 17:48 | 45.63949 | 17.49447 | 28945 ft | 489 kts | 116° |
| 2026-04-13 17:49 | 45.61157 | 17.58330 | 28945 ft | 490 kts | 116° |
| 2026-04-13 17:49 | 45.58354 | 17.67210 | 28948 ft | 490 kts | 116° |
| 2026-04-13 17:50 | 45.55556 | 17.76038 | 28943 ft | 491 kts | 116° |
| 2026-04-13 17:50 | 45.52735 | 17.84914 | 28946 ft | 490 kts | 116° |
| 2026-04-13 17:51 | 45.49943 | 17.93666 | 28947 ft | 490 kts | 116° |
| 2026-04-13 17:51 | 45.47114 | 18.02503 | 28943 ft | 490 kts | 116° |
| 2026-04-13 17:52 | 45.44297 | 18.11287 | 28944 ft | 490 kts | 116° |
| 2026-04-13 17:52 | 45.41447 | 18.20123 | 28945 ft | 491 kts | 116° |
| 2026-04-13 17:53 | 45.39054 | 18.27519 | 28946 ft | 492 kts | 116° |
| 2026-04-13 17:53 | 45.35721 | 18.37796 | 28935 ft | 493 kts | 116° |
| 2026-04-13 17:54 | 45.32838 | 18.46654 | 28935 ft | 493 kts | 116° |
| 2026-04-13 17:54 | 45.29947 | 18.55512 | 28935 ft | 494 kts | 116° |
| 2026-04-13 17:55 | 45.27044 | 18.64369 | 28934 ft | 494 kts | 117° |
| 2026-04-13 17:55 | 45.23996 | 18.73043 | 28936 ft | 494 kts | 119° |
| 2026-04-13 17:56 | 45.20791 | 18.81671 | 28935 ft | 495 kts | 120° |
| 2026-04-13 17:56 | 45.17589 | 18.90318 | 28938 ft | 495 kts | 119° |
| 2026-04-13 17:57 | 45.14401 | 18.98995 | 28934 ft | 495 kts | 119° |
| 2026-04-13 17:57 | 45.11214 | 19.07680 | 28936 ft | 496 kts | 119° |
| 2026-04-13 17:58 | 45.08050 | 19.16274 | 28935 ft | 496 kts | 119° |
| 2026-04-13 17:58 | 45.04852 | 19.24920 | 28934 ft | 496 kts | 120° |
| 2026-04-13 17:59 | 45.01648 | 19.33555 | 28937 ft | 496 kts | 120° |
| 2026-04-13 17:59 | 44.98431 | 19.42200 | 28935 ft | 497 kts | 120° |
| 2026-04-13 18:00 | 44.95193 | 19.50873 | 28943 ft | 498 kts | 120° |
| 2026-04-13 18:00 | 44.91972 | 19.59477 | 28945 ft | 499 kts | 120° |
| 2026-04-13 18:01 | 44.88722 | 19.68130 | 28971 ft | 499 kts | 120° |
| 2026-04-13 18:01 | 44.85459 | 19.76790 | 28950 ft | 500 kts | 120° |
| 2026-04-13 18:02 | 44.82187 | 19.85440 | 28969 ft | 500 kts | 120° |
| 2026-04-13 18:02 | 44.78913 | 19.94085 | 28952 ft | 500 kts | 120° |
| 2026-04-13 18:03 | 44.75629 | 20.02720 | 28967 ft | 500 kts | 120° |
| 2026-04-13 18:03 | 44.72139 | 20.11217 | 28972 ft | 500 kts | 123° |
| 2026-04-13 18:04 | 44.68485 | 20.19489 | 28970 ft | 502 kts | 124° |
| 2026-04-13 18:04 | 44.64801 | 20.27838 | 28968 ft | 503 kts | 123° |
| 2026-04-13 18:05 | 44.61139 | 20.36241 | 28957 ft | 503 kts | 123° |
| 2026-04-13 18:05 | 44.57502 | 20.44619 | 28971 ft | 503 kts | 123° |
| 2026-04-13 18:06 | 44.53873 | 20.52947 | 28953 ft | 503 kts | 123° |
| 2026-04-13 18:06 | 44.50216 | 20.61309 | 28969 ft | 503 kts | 123° |
| 2026-04-13 18:07 | 44.46545 | 20.69670 | 28974 ft | 503 kts | 123° |
| 2026-04-13 18:07 | 44.42870 | 20.78015 | 28965 ft | 503 kts | 123° |
| 2026-04-13 18:08 | 44.39187 | 20.86363 | 28951 ft | 504 kts | 123° |
| 2026-04-13 18:08 | 44.35522 | 20.94641 | 28974 ft | 504 kts | 123° |
| 2026-04-13 18:09 | 44.31831 | 21.02959 | 28968 ft | 504 kts | 124° |
| 2026-04-13 18:09 | 44.28128 | 21.11272 | 28968 ft | 504 kts | 123° |
| 2026-04-13 18:10 | 44.25040 | 21.18195 | 28973 ft | 504 kts | 124° |
| 2026-04-13 18:10 | 44.21328 | 21.26481 | 28963 ft | 504 kts | 124° |
| 2026-04-13 18:11 | 44.17611 | 21.34758 | 28982 ft | 504 kts | 124° |
| 2026-04-13 18:11 | 44.13877 | 21.43056 | 28974 ft | 505 kts | 124° |
| 2026-04-13 18:12 | 44.10138 | 21.51338 | 28992 ft | 505 kts | 124° |
| 2026-04-13 18:12 | 44.06397 | 21.59604 | 28990 ft | 505 kts | 124° |
| 2026-04-13 18:13 | 44.02650 | 21.67853 | 28999 ft | 505 kts | 124° |
| 2026-04-13 18:13 | 43.98917 | 21.76051 | 29006 ft | 506 kts | 124° |
| 2026-04-13 18:14 | 43.95145 | 21.84315 | 29014 ft | 506 kts | 124° |
| 2026-04-13 18:14 | 43.91365 | 21.92568 | 29019 ft | 506 kts | 124° |
| 2026-04-13 18:15 | 43.87576 | 22.00817 | 29035 ft | 506 kts | 124° |
| 2026-04-13 18:15 | 43.83813 | 22.08989 | 29042 ft | 506 kts | 124° |
| 2026-04-13 18:16 | 43.80014 | 22.17215 | 29047 ft | 506 kts | 124° |
| 2026-04-13 18:16 | 43.76212 | 22.25436 | 29043 ft | 506 kts | 123° |
| 2026-04-13 18:17 | 43.73366 | 22.34302 | 29065 ft | 510 kts | 107° |
| 2026-04-13 18:17 | 43.72171 | 22.43970 | 29063 ft | 511 kts | 96° |
| 2026-04-13 18:18 | 43.71429 | 22.53755 | 29050 ft | 511 kts | 97° |
| 2026-04-13 18:18 | 43.70632 | 22.63543 | 29070 ft | 513 kts | 97° |
| 2026-04-13 18:19 | 43.69794 | 22.73369 | 29066 ft | 514 kts | 97° |
| 2026-04-13 18:19 | 43.68946 | 22.83114 | 29073 ft | 515 kts | 97° |
| 2026-04-13 18:20 | 43.68084 | 22.92951 | 29078 ft | 516 kts | 97° |
| 2026-04-13 18:20 | 43.67215 | 23.02796 | 29087 ft | 516 kts | 97° |
| 2026-04-13 18:21 | 43.66339 | 23.12629 | 29094 ft | 516 kts | 97° |
| 2026-04-13 18:21 | 43.65452 | 23.22467 | 29100 ft | 516 kts | 97° |
| 2026-04-13 18:22 | 43.64560 | 23.32292 | 29106 ft | 516 kts | 97° |
| 2026-04-13 18:22 | 43.63663 | 23.42071 | 29115 ft | 516 kts | 97° |
| 2026-04-13 18:23 | 43.62751 | 23.51891 | 29131 ft | 516 kts | 97° |
| 2026-04-13 18:23 | 43.61829 | 23.61721 | 29138 ft | 516 kts | 97° |
| 2026-04-13 18:24 | 43.60905 | 23.71500 | 29143 ft | 516 kts | 98° |
| 2026-04-13 18:24 | 43.59969 | 23.81323 | 29137 ft | 516 kts | 98° |
| 2026-04-13 18:25 | 43.59025 | 23.91142 | 29138 ft | 516 kts | 98° |
| 2026-04-13 18:25 | 43.58071 | 24.00957 | 29142 ft | 516 kts | 98° |
| 2026-04-13 18:26 | 43.57112 | 24.10740 | 29148 ft | 516 kts | 98° |
| 2026-04-13 18:26 | 43.56142 | 24.20539 | 29152 ft | 516 kts | 98° |
| 2026-04-13 18:27 | 43.55161 | 24.30369 | 29161 ft | 517 kts | 98° |
| 2026-04-13 18:27 | 43.54177 | 24.40142 | 29157 ft | 518 kts | 98° |
| 2026-04-13 18:28 | 43.53174 | 24.50028 | 29155 ft | 518 kts | 98° |
| 2026-04-13 18:28 | 43.52169 | 24.59818 | 29153 ft | 519 kts | 98° |
| 2026-04-13 18:29 | 43.51149 | 24.69673 | 29150 ft | 521 kts | 98° |
| 2026-04-13 18:29 | 43.50114 | 24.79609 | 29151 ft | 521 kts | 98° |
| 2026-04-13 18:30 | 43.49077 | 24.89458 | 29154 ft | 522 kts | 98° |
| 2026-04-13 18:30 | 43.48031 | 24.99349 | 29152 ft | 523 kts | 98° |
| 2026-04-13 18:31 | 43.46967 | 25.09271 | 29148 ft | 524 kts | 97° |
| 2026-04-13 18:31 | 43.45897 | 25.19209 | 29147 ft | 525 kts | 97° |
| 2026-04-13 18:32 | 43.44821 | 25.29102 | 29152 ft | 526 kts | 97° |
| 2026-04-13 18:32 | 43.43728 | 25.39053 | 29137 ft | 527 kts | 97° |
| 2026-04-13 18:33 | 43.42627 | 25.49045 | 29137 ft | 527 kts | 97° |
| 2026-04-13 18:33 | 43.41513 | 25.59030 | 29138 ft | 528 kts | 97° |
| 2026-04-13 18:34 | 43.39823 | 25.74008 | 29140 ft | 529 kts | 97° |
| 2026-04-13 18:34 | 43.38684 | 25.84021 | 29136 ft | 529 kts | 97° |
| 2026-04-13 18:35 | 43.37544 | 25.93963 | 29142 ft | 529 kts | 97° |
| 2026-04-13 18:35 | 43.36389 | 26.03965 | 29132 ft | 529 kts | 97° |
| 2026-04-13 18:36 | 43.35226 | 26.13960 | 29143 ft | 529 kts | 97° |
| 2026-04-13 18:36 | 43.34061 | 26.23903 | 29155 ft | 531 kts | 97° |
| 2026-04-13 18:37 | 43.32872 | 26.33937 | 29161 ft | 533 kts | 97° |
| 2026-04-13 18:37 | 43.31671 | 26.43991 | 29162 ft | 533 kts | 98° |
| 2026-04-13 18:38 | 43.30464 | 26.54047 | 29166 ft | 534 kts | 98° |
| 2026-04-13 18:38 | 43.29246 | 26.64109 | 29182 ft | 534 kts | 98° |
| 2026-04-13 18:39 | 43.28018 | 26.74166 | 29184 ft | 534 kts | 98° |
| 2026-04-13 18:39 | 43.26781 | 26.84224 | 29211 ft | 534 kts | 98° |
| 2026-04-13 18:40 | 43.25539 | 26.94246 | 29209 ft | 535 kts | 98° |
| 2026-04-13 18:40 | 43.24280 | 27.04332 | 29226 ft | 535 kts | 98° |
| 2026-04-13 18:41 | 43.23019 | 27.14356 | 29234 ft | 537 kts | 98° |
| 2026-04-13 18:41 | 43.21742 | 27.24449 | 29240 ft | 537 kts | 98° |
| 2026-04-13 18:42 | 43.20454 | 27.34550 | 29243 ft | 537 kts | 98° |
| 2026-04-13 18:42 | 43.19156 | 27.44633 | 29247 ft | 537 kts | 98° |
| 2026-04-13 18:43 | 43.17858 | 27.54663 | 29249 ft | 538 kts | 98° |
| 2026-04-13 18:43 | 43.16542 | 27.64758 | 29264 ft | 538 kts | 98° |
| 2026-04-13 18:44 | 43.15216 | 27.74849 | 29265 ft | 539 kts | 98° |
| 2026-04-13 18:44 | 43.13877 | 27.84962 | 29274 ft | 539 kts | 98° |
| 2026-04-13 18:45 | 43.12532 | 27.95076 | 29265 ft | 540 kts | 98° |
| 2026-04-13 18:45 | 43.11174 | 28.05190 | 29266 ft | 540 kts | 98° |
| 2026-04-13 18:46 | 43.09808 | 28.15314 | 29265 ft | 541 kts | 98° |
| 2026-04-13 18:46 | 43.08428 | 28.25464 | 29272 ft | 543 kts | 98° |
| 2026-04-13 18:47 | 43.07031 | 28.35635 | 29268 ft | 543 kts | 98° |
| 2026-04-13 18:47 | 43.05638 | 28.45744 | 29267 ft | 544 kts | 98° |
| 2026-04-13 18:48 | 43.04225 | 28.55935 | 29267 ft | 544 kts | 98° |
| 2026-04-13 18:48 | 43.02802 | 28.66119 | 29344 ft | 547 kts | 98° |
| 2026-04-13 18:49 | 43.02091 | 28.71178 | 29632 ft | 548 kts | 98° |
| 2026-04-13 18:49 | 43.01370 | 28.76279 | 30035 ft | 546 kts | 98° |
| 2026-04-13 18:49 | 43.00648 | 28.81371 | 30450 ft | 544 kts | 98° |
| 2026-04-13 18:49 | 42.99927 | 28.86425 | 30850 ft | 541 kts | 98° |
| 2026-04-13 18:50 | 42.99211 | 28.91466 | 31194 ft | 540 kts | 98° |
| 2026-04-13 18:50 | 42.98491 | 28.96519 | 31233 ft | 543 kts | 98° |
| 2026-04-13 18:50 | 42.97040 | 29.06631 | 31259 ft | 541 kts | 98° |
| 2026-04-13 18:51 | 42.95592 | 29.16643 | 31254 ft | 539 kts | 98° |
| 2026-04-13 18:51 | 42.94134 | 29.26671 | 31257 ft | 538 kts | 98° |
| 2026-04-13 18:52 | 42.92664 | 29.36696 | 31261 ft | 539 kts | 98° |
| 2026-04-13 18:52 | 42.91182 | 29.46755 | 31261 ft | 541 kts | 98° |
| 2026-04-13 18:53 | 42.89690 | 29.56822 | 31260 ft | 542 kts | 99° |
| 2026-04-13 18:53 | 42.88191 | 29.66872 | 31263 ft | 544 kts | 99° |
| 2026-04-13 18:54 | 42.86666 | 29.77017 | 31257 ft | 545 kts | 99° |
| 2026-04-13 18:54 | 42.85395 | 29.85430 | 31260 ft | 545 kts | 99° |
| 2026-04-13 18:55 | 42.83857 | 29.95543 | 31257 ft | 546 kts | 99° |
| 2026-04-13 18:55 | 42.82312 | 30.05644 | 31258 ft | 546 kts | 99° |
| 2026-04-13 18:56 | 42.80755 | 30.15767 | 31251 ft | 547 kts | 99° |
| 2026-04-13 18:56 | 42.79183 | 30.25926 | 31243 ft | 548 kts | 99° |
| 2026-04-13 18:57 | 42.77610 | 30.36022 | 31256 ft | 548 kts | 99° |
| 2026-04-13 18:57 | 42.76018 | 30.46180 | 31262 ft | 548 kts | 99° |
| 2026-04-13 18:58 | 42.74417 | 30.56329 | 31264 ft | 549 kts | 99° |
| 2026-04-13 18:58 | 42.72505 | 30.66410 | 31255 ft | 551 kts | 104° |
| 2026-04-13 18:59 | 42.70290 | 30.76414 | 31256 ft | 552 kts | 104° |
| 2026-04-13 18:59 | 42.68065 | 30.86406 | 31257 ft | 552 kts | 104° |
| 2026-04-13 19:00 | 42.65874 | 30.96336 | 31261 ft | 552 kts | 104° |
| 2026-04-13 19:00 | 42.63669 | 31.06345 | 31254 ft | 553 kts | 104° |
| 2026-04-13 19:01 | 42.61452 | 31.16362 | 31246 ft | 554 kts | 104° |
| 2026-04-13 19:01 | 42.59222 | 31.26390 | 31252 ft | 555 kts | 104° |
| 2026-04-13 19:02 | 42.56998 | 31.36340 | 31248 ft | 555 kts | 104° |
| 2026-04-13 19:02 | 42.54742 | 31.46370 | 31251 ft | 556 kts | 104° |
| 2026-04-13 19:03 | 42.52481 | 31.56391 | 31248 ft | 556 kts | 104° |
| 2026-04-13 19:03 | 42.50203 | 31.66424 | 31247 ft | 557 kts | 104° |
| 2026-04-13 19:04 | 42.47921 | 31.76455 | 31243 ft | 556 kts | 105° |
| 2026-04-13 19:04 | 42.45636 | 31.86453 | 31239 ft | 556 kts | 105° |
| 2026-04-13 19:05 | 42.43335 | 31.96467 | 31239 ft | 556 kts | 105° |
| 2026-04-13 19:05 | 42.41039 | 32.06406 | 31235 ft | 556 kts | 105° |
| 2026-04-13 19:06 | 42.38718 | 32.16408 | 31242 ft | 556 kts | 105° |
| 2026-04-13 19:06 | 42.36391 | 32.26405 | 31241 ft | 557 kts | 105° |
| 2026-04-13 19:07 | 42.34054 | 32.36382 | 31238 ft | 558 kts | 105° |
| 2026-04-13 19:07 | 42.31708 | 32.46374 | 31231 ft | 559 kts | 105° |
| 2026-04-13 19:08 | 42.29354 | 32.56348 | 31231 ft | 560 kts | 105° |
| 2026-04-13 19:08 | 42.26976 | 32.66373 | 31229 ft | 561 kts | 105° |
| 2026-04-13 19:09 | 42.24586 | 32.76412 | 31230 ft | 562 kts | 105° |
| 2026-04-13 19:09 | 42.22175 | 32.86484 | 31229 ft | 563 kts | 105° |
| 2026-04-13 19:10 | 42.19756 | 32.96538 | 31232 ft | 564 kts | 105° |
| 2026-04-13 19:10 | 42.17339 | 33.06562 | 31225 ft | 566 kts | 105° |
| 2026-04-13 19:11 | 42.14892 | 33.16661 | 31209 ft | 567 kts | 105° |
| 2026-04-13 19:11 | 42.12423 | 33.26805 | 31214 ft | 568 kts | 105° |
| 2026-04-13 19:12 | 42.09960 | 33.36873 | 31212 ft | 569 kts | 105° |
| 2026-04-13 19:12 | 42.07468 | 33.47021 | 31214 ft | 570 kts | 105° |
| 2026-04-13 19:13 | 42.04968 | 33.57152 | 31215 ft | 571 kts | 105° |
| 2026-04-13 19:13 | 42.02455 | 33.67295 | 31216 ft | 571 kts | 106° |
| 2026-04-13 19:14 | 41.99932 | 33.77428 | 31214 ft | 572 kts | 106° |
| 2026-04-13 19:14 | 41.97415 | 33.87498 | 31212 ft | 572 kts | 106° |
| 2026-04-13 19:15 | 41.94867 | 33.97662 | 31215 ft | 571 kts | 106° |
| 2026-04-13 19:15 | 41.92322 | 34.07764 | 31225 ft | 571 kts | 106° |
| 2026-04-13 19:16 | 41.89768 | 34.17851 | 31204 ft | 570 kts | 106° |
| 2026-04-13 19:16 | 41.87205 | 34.27925 | 31211 ft | 570 kts | 106° |
| 2026-04-13 19:17 | 41.84648 | 34.37944 | 31220 ft | 571 kts | 106° |
| 2026-04-13 19:17 | 41.82059 | 34.48032 | 31218 ft | 572 kts | 106° |
| 2026-04-13 19:18 | 41.79467 | 34.58117 | 31204 ft | 571 kts | 107° |
| 2026-04-13 19:18 | 41.76871 | 34.68164 | 31206 ft | 570 kts | 106° |
| 2026-04-13 19:19 | 41.74276 | 34.78149 | 31216 ft | 572 kts | 107° |
| 2026-04-13 19:19 | 41.71645 | 34.88234 | 31214 ft | 572 kts | 107° |
| 2026-04-13 19:20 | 41.69010 | 34.98297 | 31222 ft | 573 kts | 107° |
| 2026-04-13 19:20 | 41.66382 | 35.08300 | 31184 ft | 574 kts | 107° |
| 2026-04-13 19:21 | 41.63736 | 35.18358 | 31200 ft | 575 kts | 106° |
| 2026-04-13 19:21 | 41.61055 | 35.28452 | 31220 ft | 577 kts | 107° |
| 2026-04-13 19:22 | 41.58353 | 35.38590 | 31214 ft | 580 kts | 107° |
| 2026-04-13 19:22 | 41.55635 | 35.48767 | 31234 ft | 583 kts | 106° |
| 2026-04-13 19:23 | 41.52904 | 35.58941 | 31192 ft | 585 kts | 107° |
| 2026-04-13 19:23 | 41.50155 | 35.69143 | 31226 ft | 582 kts | 107° |
| 2026-04-13 19:24 | 41.47417 | 35.79262 | 31274 ft | 580 kts | 107° |
| 2026-04-13 19:24 | 41.44667 | 35.89389 | 31269 ft | 580 kts | 107° |
| 2026-04-13 19:25 | 41.41932 | 35.99420 | 31274 ft | 579 kts | 107° |
| 2026-04-13 19:25 | 41.39162 | 36.09513 | 31283 ft | 580 kts | 107° |
| 2026-04-13 19:26 | 41.36391 | 36.19611 | 31300 ft | 580 kts | 107° |
| 2026-04-13 19:26 | 41.33602 | 36.29705 | 31317 ft | 581 kts | 107° |
| 2026-04-13 19:27 | 41.30802 | 36.39817 | 31314 ft | 580 kts | 107° |
| 2026-04-13 19:27 | 41.28260 | 36.49873 | 31326 ft | 571 kts | 97° |
| 2026-04-13 19:28 | 41.27632 | 36.55011 | 31324 ft | 560 kts | 88° |
| 2026-04-13 19:28 | 41.27524 | 36.60168 | 31328 ft | 553 kts | 80° |
| 2026-04-13 19:28 | 41.28626 | 36.70190 | 31322 ft | 546 kts | 69° |
| 2026-04-13 19:29 | 41.30247 | 36.80044 | 31338 ft | 545 kts | 69° |
| 2026-04-13 19:29 | 41.31841 | 36.89838 | 31324 ft | 544 kts | 69° |
| 2026-04-13 19:30 | 41.33255 | 36.99760 | 31319 ft | 545 kts | 71° |
| 2026-04-13 19:30 | 41.34626 | 37.09663 | 31350 ft | 545 kts | 71° |
| 2026-04-13 19:31 | 41.35967 | 37.19648 | 31335 ft | 544 kts | 71° |
| 2026-04-13 19:31 | 41.37343 | 37.29481 | 31346 ft | 541 kts | 70° |
| 2026-04-13 19:32 | 41.38826 | 37.39303 | 31309 ft | 539 kts | 69° |
| 2026-04-13 19:32 | 41.40371 | 37.49025 | 31328 ft | 536 kts | 70° |
| 2026-04-13 19:33 | 41.41656 | 37.58773 | 31303 ft | 539 kts | 73° |
| 2026-04-13 19:34 | 41.43514 | 37.73470 | 31302 ft | 530 kts | 70° |
| 2026-04-13 19:34 | 41.44774 | 37.83197 | 31301 ft | 537 kts | 72° |
| 2026-04-13 19:35 | 41.46187 | 37.92988 | 31294 ft | 535 kts | 70° |
| 2026-04-13 19:35 | 41.47573 | 38.02676 | 31300 ft | 527 kts | 72° |
| 2026-04-13 19:35 | 41.48212 | 38.07424 | 31299 ft | 512 kts | 71° |
| 2026-04-13 19:36 | 41.48833 | 38.12064 | 31293 ft | 507 kts | 72° |
| 2026-04-13 19:36 | 41.50110 | 38.21203 | 31339 ft | 501 kts | 70° |
| 2026-04-13 19:37 | 41.51317 | 38.30454 | 31332 ft | 505 kts | 72° |
| 2026-04-13 19:37 | 41.52489 | 38.39738 | 31316 ft | 509 kts | 72° |
| 2026-04-13 19:38 | 41.53611 | 38.49001 | 31339 ft | 507 kts | 71° |
| 2026-04-13 19:38 | 41.54906 | 38.58316 | 31327 ft | 511 kts | 72° |
| 2026-04-13 19:39 | 41.56043 | 38.67711 | 31317 ft | 510 kts | 72° |
| 2026-04-13 19:39 | 41.57348 | 38.76947 | 31295 ft | 502 kts | 72° |
| 2026-04-13 19:40 | 41.58561 | 38.86133 | 31339 ft | 510 kts | 73° |
| 2026-04-13 19:40 | 41.59715 | 38.95594 | 31327 ft | 520 kts | 75° |
| 2026-04-13 19:41 | 41.60920 | 39.05207 | 31321 ft | 527 kts | 73° |
| 2026-04-13 19:41 | 41.61926 | 39.13230 | 31308 ft | 524 kts | 73° |
| 2026-04-13 19:42 | 41.63712 | 39.27747 | 31314 ft | 531 kts | 75° |
| 2026-04-13 19:42 | 41.64977 | 39.37424 | 31323 ft | 525 kts | 75° |
| 2026-04-13 19:43 | 41.66126 | 39.47065 | 31302 ft | 523 kts | 76° |
| 2026-04-13 19:43 | 41.67274 | 39.56645 | 31311 ft | 521 kts | 76° |
| 2026-04-13 19:44 | 41.68405 | 39.66150 | 31319 ft | 521 kts | 77° |
| 2026-04-13 19:44 | 41.69561 | 39.75735 | 31301 ft | 522 kts | 77° |
| 2026-04-13 19:45 | 41.70697 | 39.85333 | 31315 ft | 521 kts | 77° |
| 2026-04-13 19:45 | 41.71833 | 39.94907 | 31316 ft | 521 kts | 77° |
| 2026-04-13 19:46 | 41.72940 | 40.04485 | 31302 ft | 520 kts | 78° |
| 2026-04-13 19:46 | 41.74050 | 40.14055 | 31319 ft | 519 kts | 78° |
| 2026-04-13 19:47 | 41.75153 | 40.23537 | 31295 ft | 519 kts | 78° |
| 2026-04-13 19:47 | 41.76245 | 40.33103 | 31320 ft | 518 kts | 78° |
| 2026-04-13 19:48 | 41.77334 | 40.42665 | 31319 ft | 519 kts | 78° |
| 2026-04-13 19:48 | 41.78413 | 40.52252 | 31318 ft | 520 kts | 78° |
| 2026-04-13 19:49 | 41.79461 | 40.61834 | 31309 ft | 520 kts | 79° |
| 2026-04-13 19:49 | 41.79752 | 40.71548 | 31287 ft | 524 kts | 91° |
| 2026-04-13 19:50 | 41.79221 | 40.81286 | 31297 ft | 524 kts | 92° |
| 2026-04-13 19:50 | 41.78663 | 40.90959 | 31306 ft | 522 kts | 92° |
| 2026-04-13 19:51 | 41.78152 | 41.00643 | 31313 ft | 520 kts | 92° |
| 2026-04-13 19:51 | 41.77655 | 41.10314 | 31316 ft | 519 kts | 92° |
| 2026-04-13 19:52 | 41.77163 | 41.19894 | 31316 ft | 517 kts | 92° |
| 2026-04-13 19:52 | 41.76656 | 41.29477 | 31308 ft | 514 kts | 93° |
| 2026-04-13 19:53 | 41.76140 | 41.39032 | 31317 ft | 512 kts | 93° |
| 2026-04-13 19:53 | 41.75621 | 41.48519 | 31311 ft | 509 kts | 94° |
| 2026-04-13 19:54 | 41.75094 | 41.57910 | 31321 ft | 507 kts | 94° |
| 2026-04-13 19:54 | 41.74565 | 41.67321 | 31319 ft | 505 kts | 94° |
| 2026-04-13 19:55 | 41.74028 | 41.76714 | 31318 ft | 504 kts | 94° |
| 2026-04-13 19:55 | 41.73487 | 41.86066 | 31316 ft | 503 kts | 95° |
| 2026-04-13 19:56 | 41.72939 | 41.95346 | 31309 ft | 503 kts | 95° |
| 2026-04-13 19:56 | 41.72386 | 42.04670 | 31314 ft | 503 kts | 95° |
| 2026-04-13 19:57 | 41.71824 | 42.13998 | 31294 ft | 503 kts | 95° |
| 2026-04-13 19:57 | 41.71261 | 42.23328 | 31297 ft | 503 kts | 95° |
| 2026-04-13 19:58 | 41.70693 | 42.32691 | 31286 ft | 503 kts | 95° |
| 2026-04-13 19:58 | 41.70121 | 42.41973 | 31279 ft | 503 kts | 95° |
| 2026-04-13 19:59 | 41.69536 | 42.51307 | 31271 ft | 503 kts | 95° |
| 2026-04-13 19:59 | 41.68944 | 42.60646 | 31263 ft | 502 kts | 95° |
| 2026-04-13 20:00 | 41.68347 | 42.69955 | 31262 ft | 502 kts | 95° |
| 2026-04-13 20:00 | 41.67743 | 42.79270 | 31254 ft | 502 kts | 95° |
| 2026-04-13 20:01 | 41.67127 | 42.88592 | 31261 ft | 502 kts | 96° |
| 2026-04-13 20:01 | 41.66493 | 42.97847 | 31250 ft | 502 kts | 96° |
| 2026-04-13 20:02 | 41.65842 | 43.07140 | 31248 ft | 501 kts | 96° |
| 2026-04-13 20:02 | 41.65190 | 43.16417 | 31248 ft | 500 kts | 96° |
| 2026-04-13 20:03 | 41.64532 | 43.25696 | 31206 ft | 500 kts | 97° |
| 2026-04-13 20:03 | 41.63869 | 43.34906 | 31176 ft | 500 kts | 97° |
| 2026-04-13 20:04 | 41.63201 | 43.44133 | 31154 ft | 497 kts | 97° |
| 2026-04-13 20:04 | 41.62527 | 43.53339 | 31153 ft | 495 kts | 97° |
| 2026-04-13 20:05 | 41.61850 | 43.62496 | 31155 ft | 494 kts | 97° |
| 2026-04-13 20:05 | 41.61172 | 43.71590 | 31150 ft | 493 kts | 97° |
| 2026-04-13 20:06 | 41.60489 | 43.80688 | 31148 ft | 492 kts | 98° |
| 2026-04-13 20:06 | 41.59795 | 43.89785 | 31149 ft | 492 kts | 98° |
| 2026-04-13 20:07 | 41.59097 | 43.98880 | 31137 ft | 492 kts | 98° |
| 2026-04-13 20:07 | 41.58390 | 44.07982 | 31141 ft | 492 kts | 98° |
| 2026-04-13 20:08 | 41.57680 | 44.17030 | 31128 ft | 492 kts | 98° |
| 2026-04-13 20:08 | 41.56556 | 44.26022 | 31122 ft | 489 kts | 108° |
| 2026-04-13 20:09 | 41.54421 | 44.34608 | 31122 ft | 487 kts | 111° |
| 2026-04-13 20:09 | 41.52251 | 44.43171 | 31122 ft | 487 kts | 111° |
| 2026-04-13 20:10 | 41.50112 | 44.51746 | 31113 ft | 487 kts | 111° |
| 2026-04-13 20:10 | 41.47991 | 44.60265 | 31113 ft | 487 kts | 111° |
| 2026-04-13 20:11 | 41.45848 | 44.68847 | 31109 ft | 486 kts | 111° |
| 2026-04-13 20:11 | 41.43710 | 44.77400 | 31104 ft | 486 kts | 111° |
| 2026-04-13 20:12 | 41.41575 | 44.85885 | 31099 ft | 485 kts | 111° |
| 2026-04-13 20:12 | 41.39428 | 44.94389 | 31102 ft | 484 kts | 111° |
| 2026-04-13 20:13 | 41.37277 | 45.02878 | 31104 ft | 483 kts | 112° |
| 2026-04-13 20:13 | 41.35123 | 45.11349 | 31112 ft | 482 kts | 112° |
| 2026-04-13 20:14 | 41.32974 | 45.19751 | 31111 ft | 482 kts | 112° |
| 2026-04-13 20:14 | 41.30805 | 45.28197 | 31111 ft | 481 kts | 112° |
| 2026-04-13 20:15 | 41.28634 | 45.36625 | 31110 ft | 481 kts | 112° |
| 2026-04-13 20:15 | 41.26478 | 45.44974 | 31113 ft | 480 kts | 112° |
| 2026-04-13 20:16 | 41.24303 | 45.53378 | 31111 ft | 480 kts | 112° |
| 2026-04-13 20:16 | 41.22119 | 45.61768 | 31108 ft | 480 kts | 113° |
| 2026-04-13 20:17 | 41.19930 | 45.70135 | 31113 ft | 478 kts | 113° |
| 2026-04-13 20:17 | 41.17739 | 45.78421 | 31117 ft | 477 kts | 113° |
| 2026-04-13 20:18 | 41.15523 | 45.86719 | 31119 ft | 477 kts | 113° |
| 2026-04-13 20:18 | 41.13302 | 45.95038 | 31122 ft | 477 kts | 113° |
| 2026-04-13 20:19 | 41.11086 | 46.03340 | 31120 ft | 477 kts | 113° |
| 2026-04-13 20:19 | 41.08868 | 46.11610 | 31116 ft | 475 kts | 114° |
| 2026-04-13 20:20 | 41.06672 | 46.19780 | 31112 ft | 471 kts | 114° |
| 2026-04-13 20:20 | 41.04468 | 46.27938 | 31111 ft | 468 kts | 114° |
| 2026-04-13 20:21 | 41.02288 | 46.36050 | 31114 ft | 468 kts | 114° |
| 2026-04-13 20:21 | 41.00125 | 46.44197 | 31115 ft | 468 kts | 114° |
| 2026-04-13 20:22 | 40.97952 | 46.52337 | 31107 ft | 469 kts | 114° |
| 2026-04-13 20:22 | 40.95782 | 46.60418 | 31112 ft | 469 kts | 114° |
| 2026-04-13 20:23 | 40.93596 | 46.68534 | 31112 ft | 468 kts | 114° |
| 2026-04-13 20:23 | 40.91436 | 46.76652 | 31107 ft | 468 kts | 111° |
| 2026-04-13 20:24 | 40.90801 | 46.80935 | 31118 ft | 475 kts | 100° |
| 2026-04-13 20:24 | 40.90723 | 46.85328 | 31122 ft | 482 kts | 92° |
| 2026-04-13 20:24 | 40.91958 | 46.94115 | 31113 ft | 491 kts | 81° |
| 2026-04-13 20:25 | 40.93675 | 47.02845 | 31114 ft | 490 kts | 81° |
| 2026-04-13 20:25 | 40.95343 | 47.11580 | 31113 ft | 490 kts | 82° |
| 2026-04-13 20:26 | 40.96951 | 47.20286 | 31114 ft | 489 kts | 83° |
| 2026-04-13 20:26 | 40.98550 | 47.29049 | 31107 ft | 489 kts | 83° |
| 2026-04-13 20:27 | 41.00140 | 47.37797 | 31119 ft | 488 kts | 83° |
| 2026-04-13 20:27 | 41.01713 | 47.46474 | 31109 ft | 487 kts | 83° |
| 2026-04-13 20:28 | 41.03282 | 47.55180 | 31114 ft | 485 kts | 83° |
| 2026-04-13 20:28 | 41.04843 | 47.63873 | 31111 ft | 484 kts | 84° |
| 2026-04-13 20:29 | 41.06135 | 47.71092 | 31115 ft | 484 kts | 84° |
| 2026-04-13 20:29 | 41.07680 | 47.79775 | 31104 ft | 484 kts | 84° |
| 2026-04-13 20:30 | 41.09224 | 47.88475 | 31110 ft | 483 kts | 84° |
| 2026-04-13 20:30 | 41.11174 | 47.97018 | 31093 ft | 494 kts | 73° |
| 2026-04-13 20:31 | 41.14591 | 48.05006 | 31141 ft | 504 kts | 61° |
| 2026-04-13 20:31 | 41.18809 | 48.12524 | 31106 ft | 510 kts | 60° |
| 2026-04-13 20:32 | 41.23059 | 48.20100 | 31112 ft | 512 kts | 60° |
| 2026-04-13 20:32 | 41.27282 | 48.27751 | 31115 ft | 512 kts | 61° |
| 2026-04-13 20:33 | 41.31455 | 48.35378 | 31111 ft | 514 kts | 61° |
| 2026-04-13 20:33 | 41.35657 | 48.43093 | 31108 ft | 515 kts | 61° |
| 2026-04-13 20:34 | 41.39861 | 48.50807 | 31104 ft | 513 kts | 61° |
| 2026-04-13 20:34 | 41.44060 | 48.58483 | 31109 ft | 512 kts | 60° |
| 2026-04-13 20:35 | 41.48349 | 48.66064 | 31109 ft | 512 kts | 60° |
| 2026-04-13 20:35 | 41.52602 | 48.73612 | 31108 ft | 511 kts | 60° |
| 2026-04-13 20:36 | 41.56669 | 48.81382 | 31113 ft | 508 kts | 63° |
| 2026-04-13 20:36 | 41.60548 | 48.89287 | 31111 ft | 509 kts | 64° |
| 2026-04-13 20:37 | 41.64457 | 48.97187 | 31115 ft | 510 kts | 63° |
| 2026-04-13 20:37 | 41.68415 | 49.05097 | 31111 ft | 511 kts | 63° |
| 2026-04-13 20:38 | 41.72383 | 49.12967 | 31114 ft | 513 kts | 63° |
| 2026-04-13 20:38 | 41.76342 | 49.20930 | 31108 ft | 513 kts | 63° |
| 2026-04-13 20:39 | 41.80250 | 49.28899 | 31114 ft | 514 kts | 63° |
| 2026-04-13 20:39 | 41.84335 | 49.36802 | 31110 ft | 517 kts | 60° |
| 2026-04-13 20:40 | 41.88637 | 49.44555 | 31112 ft | 518 kts | 59° |
| 2026-04-13 20:40 | 41.92951 | 49.52340 | 31112 ft | 518 kts | 59° |
| 2026-04-13 20:41 | 41.97212 | 49.60155 | 31110 ft | 519 kts | 60° |
| 2026-04-13 20:41 | 42.01461 | 49.68010 | 31112 ft | 519 kts | 60° |
| 2026-04-13 20:42 | 42.05677 | 49.75827 | 31107 ft | 519 kts | 60° |
| 2026-04-13 20:42 | 42.09917 | 49.83703 | 31103 ft | 519 kts | 60° |
| 2026-04-13 20:43 | 42.14155 | 49.91595 | 31106 ft | 519 kts | 60° |
| 2026-04-13 20:43 | 42.18381 | 49.99488 | 31100 ft | 519 kts | 60° |
| 2026-04-13 20:44 | 42.22616 | 50.07409 | 31100 ft | 519 kts | 60° |
| 2026-04-13 20:44 | 42.26826 | 50.15307 | 31100 ft | 519 kts | 60° |
| 2026-04-13 20:45 | 42.31031 | 50.23221 | 31104 ft | 518 kts | 60° |
| 2026-04-13 20:46 | 42.37289 | 50.35036 | 31102 ft | 517 kts | 60° |
| 2026-04-13 20:46 | 42.41475 | 50.42960 | 31094 ft | 516 kts | 60° |
| 2026-04-13 20:47 | 42.45681 | 50.50838 | 31095 ft | 516 kts | 58° |
| 2026-04-13 20:47 | 42.50088 | 50.58512 | 31095 ft | 516 kts | 57° |
| 2026-04-13 20:48 | 42.54507 | 50.66103 | 31089 ft | 515 kts | 57° |
| 2026-04-13 20:48 | 42.58918 | 50.73772 | 31089 ft | 514 kts | 58° |
| 2026-04-13 20:49 | 42.63285 | 50.81451 | 31091 ft | 513 kts | 58° |
| 2026-04-13 20:49 | 42.67632 | 50.89126 | 31093 ft | 512 kts | 58° |
| 2026-04-13 20:50 | 42.71972 | 50.96810 | 31086 ft | 511 kts | 58° |
| 2026-04-13 20:50 | 42.76273 | 51.04436 | 31090 ft | 511 kts | 58° |
| 2026-04-13 20:51 | 42.80595 | 51.12114 | 31090 ft | 510 kts | 58° |
| 2026-04-13 20:51 | 42.84911 | 51.19807 | 31071 ft | 510 kts | 58° |
| 2026-04-13 20:52 | 42.89216 | 51.27501 | 31066 ft | 510 kts | 58° |
| 2026-04-13 20:52 | 42.93517 | 51.35206 | 31082 ft | 510 kts | 58° |
| 2026-04-13 20:53 | 42.97785 | 51.42869 | 31075 ft | 509 kts | 58° |
| 2026-04-13 20:53 | 43.02068 | 51.50578 | 31065 ft | 509 kts | 58° |
| 2026-04-13 20:54 | 43.06343 | 51.58299 | 31079 ft | 508 kts | 58° |
| 2026-04-13 20:54 | 43.10583 | 51.65979 | 31073 ft | 508 kts | 58° |
| 2026-04-13 20:55 | 43.14853 | 51.73724 | 31081 ft | 508 kts | 58° |
| 2026-04-13 20:55 | 43.19081 | 51.81420 | 31070 ft | 508 kts | 58° |
| 2026-04-13 20:56 | 43.23325 | 51.89160 | 31080 ft | 508 kts | 58° |
| 2026-04-13 20:56 | 43.27560 | 51.96909 | 31084 ft | 507 kts | 58° |
| 2026-04-13 20:57 | 43.31793 | 52.04673 | 31072 ft | 507 kts | 58° |
| 2026-04-13 20:57 | 43.36014 | 52.12434 | 31072 ft | 506 kts | 58° |
| 2026-04-13 20:58 | 43.40226 | 52.20197 | 31072 ft | 506 kts | 58° |
| 2026-04-13 20:58 | 43.44427 | 52.27968 | 31078 ft | 506 kts | 58° |
| 2026-04-13 20:59 | 43.48623 | 52.35742 | 31079 ft | 506 kts | 58° |
| 2026-04-13 20:59 | 43.52786 | 52.43482 | 31072 ft | 506 kts | 58° |
| 2026-04-13 21:00 | 43.56972 | 52.51278 | 31080 ft | 506 kts | 58° |
| 2026-04-13 21:00 | 43.61150 | 52.59081 | 31092 ft | 506 kts | 58° |
| 2026-04-13 21:01 | 43.65332 | 52.66920 | 31082 ft | 506 kts | 58° |
| 2026-04-13 21:01 | 43.69474 | 52.74725 | 31079 ft | 507 kts | 59° |
| 2026-04-13 21:02 | 43.73631 | 52.82614 | 31076 ft | 507 kts | 59° |
| 2026-04-13 21:02 | 43.77777 | 52.90505 | 31075 ft | 506 kts | 58° |
| 2026-04-13 21:03 | 43.81910 | 52.98376 | 31077 ft | 505 kts | 58° |
| 2026-04-13 21:03 | 43.86031 | 53.06262 | 31075 ft | 506 kts | 59° |
| 2026-04-13 21:04 | 43.90160 | 53.14175 | 31081 ft | 505 kts | 58° |
| 2026-04-13 21:04 | 43.94274 | 53.22070 | 31048 ft | 507 kts | 58° |
| 2026-04-13 21:05 | 43.98413 | 53.30007 | 31061 ft | 507 kts | 58° |
| 2026-04-13 21:05 | 44.02534 | 53.37953 | 31055 ft | 506 kts | 58° |
| 2026-04-13 21:06 | 44.06650 | 53.45918 | 31041 ft | 506 kts | 58° |
| 2026-04-13 21:06 | 44.10722 | 53.53819 | 31046 ft | 506 kts | 58° |
| 2026-04-13 21:07 | 44.14824 | 53.61791 | 31049 ft | 505 kts | 58° |
| 2026-04-13 21:07 | 44.18918 | 53.69773 | 31045 ft | 505 kts | 58° |
| 2026-04-13 21:08 | 44.22979 | 53.77713 | 31046 ft | 506 kts | 58° |
| 2026-04-13 21:08 | 44.27062 | 53.85718 | 31038 ft | 506 kts | 59° |
| 2026-04-13 21:09 | 44.31153 | 53.93760 | 31039 ft | 506 kts | 59° |
| 2026-04-13 21:09 | 44.35230 | 54.01802 | 31037 ft | 507 kts | 59° |
| 2026-04-13 21:10 | 44.39276 | 54.09797 | 31038 ft | 506 kts | 59° |
| 2026-04-13 21:10 | 44.43334 | 54.17843 | 31037 ft | 506 kts | 59° |
| 2026-04-13 21:11 | 44.47397 | 54.25919 | 31038 ft | 506 kts | 59° |
| 2026-04-13 21:11 | 44.51446 | 54.33989 | 31027 ft | 505 kts | 59° |
| 2026-04-13 21:12 | 44.55452 | 54.41999 | 31026 ft | 504 kts | 59° |
| 2026-04-13 21:12 | 44.59467 | 54.50050 | 31028 ft | 504 kts | 59° |
| 2026-04-13 21:13 | 44.63477 | 54.58106 | 31030 ft | 502 kts | 59° |
| 2026-04-13 21:13 | 44.67839 | 54.65808 | 31011 ft | 506 kts | 50° |
| 2026-04-13 21:14 | 44.73059 | 54.72518 | 31018 ft | 507 kts | 45° |
| 2026-04-13 21:14 | 44.78286 | 54.79079 | 31006 ft | 506 kts | 46° |
| 2026-04-13 21:15 | 44.82654 | 54.84654 | 31010 ft | 505 kts | 46° |
| 2026-04-13 21:15 | 44.87848 | 54.91336 | 31010 ft | 505 kts | 46° |
| 2026-04-13 21:16 | 44.93001 | 54.97997 | 31010 ft | 505 kts | 46° |
| 2026-04-13 21:16 | 44.98186 | 55.04706 | 31011 ft | 506 kts | 46° |
| 2026-04-13 21:17 | 45.03372 | 55.11427 | 31009 ft | 506 kts | 46° |
| 2026-04-13 21:17 | 45.08017 | 55.18804 | 31008 ft | 498 kts | 60° |
| 2026-04-13 21:18 | 45.11184 | 55.27334 | 31011 ft | 489 kts | 73° |
| 2026-04-13 21:18 | 45.13594 | 55.36359 | 31008 ft | 489 kts | 73° |
| 2026-04-13 21:19 | 45.16019 | 55.45407 | 31003 ft | 490 kts | 73° |
| 2026-04-13 21:19 | 45.18450 | 55.54372 | 31003 ft | 490 kts | 73° |
| 2026-04-13 21:20 | 45.20908 | 55.63406 | 31002 ft | 490 kts | 73° |
| 2026-04-13 21:20 | 45.23361 | 55.72450 | 31000 ft | 490 kts | 73° |
| 2026-04-13 21:21 | 45.25803 | 55.81486 | 31004 ft | 490 kts | 73° |
| 2026-04-13 21:21 | 45.28223 | 55.90483 | 31002 ft | 490 kts | 73° |
| 2026-04-13 21:22 | 45.30649 | 55.99537 | 31003 ft | 490 kts | 73° |
| 2026-04-13 21:22 | 45.33068 | 56.08604 | 30996 ft | 490 kts | 73° |
| 2026-04-13 21:23 | 45.35479 | 56.17662 | 31003 ft | 490 kts | 73° |
| 2026-04-13 21:23 | 45.37866 | 56.26668 | 31002 ft | 490 kts | 73° |
| 2026-04-13 21:24 | 45.40261 | 56.35752 | 31002 ft | 489 kts | 73° |
| 2026-04-13 21:24 | 45.42647 | 56.44832 | 31001 ft | 489 kts | 73° |
| 2026-04-13 21:25 | 45.45028 | 56.53920 | 31003 ft | 490 kts | 73° |
| 2026-04-13 21:25 | 45.47403 | 56.63021 | 31001 ft | 490 kts | 73° |
| 2026-04-13 21:26 | 45.49756 | 56.72074 | 30998 ft | 489 kts | 73° |
| 2026-04-13 21:26 | 45.52112 | 56.81177 | 30995 ft | 489 kts | 73° |
| 2026-04-13 21:27 | 45.54458 | 56.90277 | 30999 ft | 488 kts | 73° |
| 2026-04-13 21:27 | 45.56796 | 56.99381 | 30997 ft | 488 kts | 73° |
| 2026-04-13 21:28 | 45.59125 | 57.08489 | 31000 ft | 488 kts | 73° |
| 2026-04-13 21:28 | 45.61430 | 57.17535 | 31000 ft | 487 kts | 73° |
| 2026-04-13 21:29 | 45.63742 | 57.26645 | 31003 ft | 487 kts | 73° |
| 2026-04-13 21:29 | 45.66046 | 57.35753 | 31030 ft | 486 kts | 73° |
| 2026-04-13 21:30 | 45.68339 | 57.44854 | 31044 ft | 485 kts | 73° |
| 2026-04-13 21:30 | 45.70606 | 57.53900 | 31046 ft | 486 kts | 73° |
| 2026-04-13 21:31 | 45.72878 | 57.62998 | 31044 ft | 485 kts | 73° |
| 2026-04-13 21:31 | 45.75147 | 57.72106 | 31047 ft | 486 kts | 73° |
| 2026-04-13 21:32 | 45.77408 | 57.81221 | 31048 ft | 486 kts | 73° |
| 2026-04-13 21:32 | 45.79662 | 57.90342 | 31048 ft | 485 kts | 73° |
| 2026-04-13 21:33 | 45.81910 | 57.99474 | 31045 ft | 485 kts | 73° |
| 2026-04-13 21:33 | 45.84146 | 58.08593 | 31045 ft | 484 kts | 73° |
| 2026-04-13 21:34 | 45.87471 | 58.22223 | 31047 ft | 484 kts | 73° |
| 2026-04-13 21:34 | 45.89689 | 58.31365 | 31045 ft | 484 kts | 73° |
| 2026-04-13 21:35 | 45.91882 | 58.40444 | 31050 ft | 484 kts | 73° |
| 2026-04-13 21:36 | 45.95185 | 58.54188 | 31046 ft | 485 kts | 73° |
| 2026-04-13 21:36 | 45.97381 | 58.63369 | 31049 ft | 486 kts | 73° |
| 2026-04-13 21:37 | 45.99577 | 58.72586 | 31040 ft | 487 kts | 73° |
| 2026-04-13 21:37 | 46.01765 | 58.81813 | 31041 ft | 487 kts | 73° |
| 2026-04-13 21:38 | 46.03934 | 58.90992 | 31049 ft | 488 kts | 73° |
| 2026-04-13 21:38 | 46.06116 | 59.00270 | 31033 ft | 489 kts | 73° |
| 2026-04-13 21:39 | 46.08301 | 59.09592 | 31027 ft | 490 kts | 73° |
| 2026-04-13 21:39 | 46.10463 | 59.18867 | 31028 ft | 491 kts | 72° |
| 2026-04-13 21:40 | 46.12634 | 59.28210 | 31028 ft | 491 kts | 72° |
| 2026-04-13 21:40 | 46.14800 | 59.37578 | 31034 ft | 492 kts | 72° |
| 2026-04-13 21:41 | 46.16958 | 59.46961 | 31036 ft | 492 kts | 72° |
| 2026-04-13 21:41 | 46.19112 | 59.56352 | 31037 ft | 492 kts | 72° |
| 2026-04-13 21:42 | 46.21246 | 59.65701 | 31036 ft | 493 kts | 72° |
| 2026-04-13 21:42 | 46.23390 | 59.75135 | 31025 ft | 494 kts | 72° |
| 2026-04-13 21:43 | 46.25513 | 59.84582 | 31024 ft | 494 kts | 73° |
| 2026-04-13 21:43 | 46.27620 | 59.94025 | 31030 ft | 494 kts | 73° |
| 2026-04-13 21:44 | 46.29707 | 60.03419 | 31027 ft | 494 kts | 72° |
| 2026-04-13 21:44 | 46.31803 | 60.12875 | 31028 ft | 493 kts | 73° |
| 2026-04-13 21:45 | 46.33891 | 60.22340 | 31028 ft | 493 kts | 73° |
| 2026-04-13 21:45 | 46.35970 | 60.31811 | 31029 ft | 493 kts | 73° |
| 2026-04-13 21:46 | 46.38036 | 60.41264 | 31029 ft | 492 kts | 73° |
| 2026-04-13 21:46 | 46.40096 | 60.50727 | 31045 ft | 492 kts | 73° |
| 2026-04-13 21:47 | 46.42130 | 60.60121 | 31044 ft | 492 kts | 72° |
| 2026-04-13 21:47 | 46.44172 | 60.69585 | 31057 ft | 491 kts | 72° |
| 2026-04-13 21:48 | 46.46203 | 60.79043 | 31073 ft | 490 kts | 72° |
| 2026-04-13 21:48 | 46.48223 | 60.88500 | 31086 ft | 490 kts | 72° |
| 2026-04-13 21:49 | 46.50232 | 60.97947 | 31084 ft | 490 kts | 72° |
| 2026-04-13 21:49 | 46.52209 | 61.07280 | 31094 ft | 489 kts | 72° |
| 2026-04-13 21:50 | 46.54201 | 61.16730 | 31095 ft | 489 kts | 72° |
| 2026-04-13 21:50 | 46.56152 | 61.26034 | 31093 ft | 488 kts | 72° |
| 2026-04-13 21:51 | 46.58148 | 61.35599 | 31096 ft | 488 kts | 72° |
| 2026-04-13 21:51 | 46.60113 | 61.45058 | 31095 ft | 488 kts | 72° |
| 2026-04-13 21:52 | 46.62056 | 61.54450 | 31100 ft | 488 kts | 72° |
| 2026-04-13 21:52 | 46.64003 | 61.63913 | 31093 ft | 488 kts | 72° |
| 2026-04-13 21:53 | 46.65944 | 61.73381 | 31098 ft | 488 kts | 72° |
| 2026-04-13 21:53 | 46.67877 | 61.82848 | 31092 ft | 487 kts | 72° |
| 2026-04-13 21:54 | 46.69800 | 61.92320 | 31097 ft | 487 kts | 72° |
| 2026-04-13 21:54 | 46.71703 | 62.01742 | 31098 ft | 487 kts | 73° |
| 2026-04-13 21:55 | 46.73607 | 62.11233 | 31092 ft | 487 kts | 72° |
| 2026-04-13 21:55 | 46.75504 | 62.20699 | 31096 ft | 486 kts | 72° |
| 2026-04-13 21:56 | 46.77393 | 62.30191 | 31105 ft | 486 kts | 72° |
| 2026-04-13 21:56 | 46.79273 | 62.39680 | 31098 ft | 486 kts | 72° |
| 2026-04-13 21:57 | 46.81137 | 62.49130 | 31103 ft | 486 kts | 72° |
| 2026-04-13 21:57 | 46.82999 | 62.58615 | 31103 ft | 486 kts | 72° |
| 2026-04-13 21:58 | 46.84857 | 62.68131 | 31102 ft | 486 kts | 72° |
| 2026-04-13 21:58 | 46.86690 | 62.77568 | 31102 ft | 486 kts | 72° |
| 2026-04-13 21:59 | 46.88219 | 62.85478 | 31100 ft | 486 kts | 72° |
| 2026-04-13 21:59 | 46.90354 | 62.96579 | 31096 ft | 487 kts | 72° |
| 2026-04-13 22:00 | 46.91870 | 63.04486 | 31100 ft | 486 kts | 72° |
| 2026-04-13 22:00 | 46.93983 | 63.15593 | 31097 ft | 486 kts | 72° |
| 2026-04-13 22:01 | 46.95496 | 63.23572 | 31102 ft | 486 kts | 72° |
| 2026-04-13 22:01 | 46.97295 | 63.33105 | 31103 ft | 486 kts | 72° |
| 2026-04-13 22:02 | 46.99078 | 63.42600 | 31110 ft | 488 kts | 72° |
| 2026-04-13 22:02 | 46.99979 | 63.47410 | 31276 ft | 490 kts | 72° |
| 2026-04-13 22:02 | 47.00878 | 63.52235 | 31614 ft | 490 kts | 72° |
| 2026-04-13 22:02 | 47.01771 | 63.57041 | 31974 ft | 488 kts | 72° |
| 2026-04-13 22:03 | 47.02662 | 63.61846 | 32318 ft | 488 kts | 71° |
| 2026-04-13 22:03 | 47.03551 | 63.66653 | 32637 ft | 487 kts | 71° |
| 2026-04-13 22:03 | 47.04438 | 63.71450 | 32901 ft | 487 kts | 71° |
| 2026-04-13 22:03 | 47.05317 | 63.76220 | 33034 ft | 489 kts | 71° |
| 2026-04-13 22:04 | 47.06205 | 63.81047 | 33080 ft | 490 kts | 71° |
| 2026-04-13 22:04 | 47.07970 | 63.90698 | 33110 ft | 488 kts | 71° |
| 2026-04-13 22:05 | 47.09720 | 64.00325 | 33120 ft | 487 kts | 71° |
| 2026-04-13 22:05 | 47.11456 | 64.09921 | 33124 ft | 485 kts | 71° |
| 2026-04-13 22:06 | 47.13170 | 64.19435 | 33117 ft | 485 kts | 71° |
| 2026-04-13 22:06 | 47.14886 | 64.29016 | 33121 ft | 484 kts | 71° |
| 2026-04-13 22:07 | 47.16591 | 64.38589 | 33119 ft | 484 kts | 71° |
| 2026-04-13 22:07 | 47.18290 | 64.48167 | 33128 ft | 484 kts | 71° |
| 2026-04-13 22:08 | 47.19979 | 64.57747 | 33131 ft | 484 kts | 71° |
| 2026-04-13 22:08 | 47.21666 | 64.67352 | 33128 ft | 484 kts | 71° |
| 2026-04-13 22:09 | 47.23329 | 64.76877 | 33129 ft | 484 kts | 71° |
| 2026-04-13 22:09 | 47.25003 | 64.86504 | 33130 ft | 484 kts | 71° |
| 2026-04-13 22:10 | 47.26663 | 64.96116 | 33131 ft | 485 kts | 71° |
| 2026-04-13 22:10 | 47.28323 | 65.05746 | 33134 ft | 485 kts | 71° |
| 2026-04-13 22:11 | 47.29981 | 65.15383 | 33139 ft | 484 kts | 71° |
| 2026-04-13 22:11 | 47.31618 | 65.24942 | 33140 ft | 484 kts | 71° |
| 2026-04-13 22:12 | 47.33259 | 65.34570 | 33147 ft | 483 kts | 71° |
| 2026-04-13 22:12 | 47.34889 | 65.44189 | 33146 ft | 483 kts | 72° |
| 2026-04-13 22:13 | 47.36511 | 65.53822 | 33139 ft | 483 kts | 72° |
| 2026-04-13 22:13 | 47.38123 | 65.63451 | 33140 ft | 483 kts | 72° |
| 2026-04-13 22:14 | 47.39717 | 65.73019 | 33140 ft | 483 kts | 72° |
| 2026-04-13 22:14 | 47.41310 | 65.82631 | 33136 ft | 482 kts | 72° |
| 2026-04-13 22:15 | 47.42926 | 65.92238 | 33140 ft | 482 kts | 71° |
| 2026-04-13 22:15 | 47.44577 | 66.01838 | 33136 ft | 482 kts | 71° |
| 2026-04-13 22:16 | 47.46217 | 66.11434 | 33148 ft | 482 kts | 71° |
| 2026-04-13 22:16 | 47.47843 | 66.21049 | 33146 ft | 482 kts | 72° |
| 2026-04-13 22:17 | 47.49458 | 66.30669 | 33149 ft | 481 kts | 72° |
| 2026-04-13 22:17 | 47.51060 | 66.40241 | 33144 ft | 481 kts | 72° |
| 2026-04-13 22:18 | 47.52659 | 66.49877 | 33150 ft | 482 kts | 72° |
| 2026-04-13 22:18 | 47.54248 | 66.59503 | 33149 ft | 481 kts | 72° |
| 2026-04-13 22:19 | 47.55832 | 66.69133 | 33145 ft | 481 kts | 72° |
| 2026-04-13 22:19 | 47.57377 | 66.78744 | 33169 ft | 482 kts | 73° |
| 2026-04-13 22:20 | 47.58872 | 66.88408 | 33161 ft | 482 kts | 73° |
| 2026-04-13 22:20 | 47.60360 | 66.98093 | 33168 ft | 482 kts | 73° |
| 2026-04-13 22:21 | 47.61842 | 67.07776 | 33151 ft | 482 kts | 73° |
| 2026-04-13 22:21 | 47.63321 | 67.17467 | 33165 ft | 482 kts | 73° |
| 2026-04-13 22:22 | 47.64794 | 67.27171 | 33166 ft | 482 kts | 73° |
| 2026-04-13 22:22 | 47.66249 | 67.36814 | 33166 ft | 482 kts | 73° |
| 2026-04-13 22:23 | 47.67706 | 67.46518 | 33171 ft | 482 kts | 73° |
| 2026-04-13 22:23 | 47.69156 | 67.56255 | 33166 ft | 483 kts | 73° |
| 2026-04-13 22:24 | 47.70598 | 67.65986 | 33164 ft | 483 kts | 73° |
| 2026-04-13 22:24 | 47.72034 | 67.75760 | 33162 ft | 483 kts | 75° |
| 2026-04-13 22:25 | 47.73089 | 67.85593 | 33183 ft | 486 kts | 78° |
| 2026-04-13 22:25 | 47.74031 | 67.95538 | 33180 ft | 486 kts | 78° |
| 2026-04-13 22:26 | 47.74979 | 68.05487 | 33174 ft | 487 kts | 78° |
| 2026-04-13 22:26 | 47.75937 | 68.15450 | 33166 ft | 487 kts | 78° |
| 2026-04-13 22:27 | 47.76894 | 68.25420 | 33173 ft | 487 kts | 78° |
| 2026-04-13 22:27 | 47.77839 | 68.35386 | 33187 ft | 487 kts | 78° |
| 2026-04-13 22:28 | 47.78774 | 68.45361 | 33186 ft | 486 kts | 78° |
| 2026-04-13 22:28 | 47.79701 | 68.55330 | 33188 ft | 486 kts | 78° |
| 2026-04-13 22:29 | 47.80614 | 68.65245 | 33178 ft | 486 kts | 78° |
| 2026-04-13 22:29 | 47.81524 | 68.75216 | 33192 ft | 485 kts | 78° |
| 2026-04-13 22:30 | 47.82134 | 68.85241 | 33181 ft | 488 kts | 87° |
| 2026-04-13 22:30 | 47.81928 | 68.95346 | 33205 ft | 488 kts | 88° |
| 2026-04-13 22:31 | 47.81688 | 69.05397 | 33201 ft | 488 kts | 88° |
| 2026-04-13 22:31 | 47.81471 | 69.15494 | 33214 ft | 488 kts | 88° |
| 2026-04-13 22:32 | 47.81267 | 69.25599 | 33223 ft | 488 kts | 88° |
| 2026-04-13 22:32 | 47.81061 | 69.35687 | 33220 ft | 488 kts | 88° |
| 2026-04-13 22:33 | 47.80840 | 69.45774 | 33221 ft | 488 kts | 88° |
| 2026-04-13 22:33 | 47.80607 | 69.55869 | 33222 ft | 489 kts | 88° |
| 2026-04-13 22:34 | 47.80120 | 69.76061 | 33221 ft | 490 kts | 88° |
| 2026-04-13 22:35 | 47.79861 | 69.86198 | 33221 ft | 490 kts | 88° |
| 2026-04-13 22:35 | 47.79594 | 69.96325 | 33222 ft | 490 kts | 88° |
| 2026-04-13 22:36 | 47.79318 | 70.06453 | 33220 ft | 489 kts | 88° |
| 2026-04-13 22:36 | 47.79035 | 70.16529 | 33223 ft | 490 kts | 88° |
| 2026-04-13 22:37 | 47.78741 | 70.26661 | 33220 ft | 490 kts | 88° |
| 2026-04-13 22:37 | 47.78440 | 70.36783 | 33225 ft | 490 kts | 88° |
| 2026-04-13 22:38 | 47.78129 | 70.46911 | 33233 ft | 490 kts | 88° |
| 2026-04-13 22:38 | 47.77814 | 70.56900 | 33248 ft | 490 kts | 89° |
| 2026-04-13 22:39 | 47.77484 | 70.67026 | 33240 ft | 490 kts | 89° |
| 2026-04-13 22:39 | 47.77143 | 70.77174 | 33238 ft | 491 kts | 89° |
| 2026-04-13 22:40 | 47.76793 | 70.87326 | 33244 ft | 492 kts | 89° |
| 2026-04-13 22:40 | 47.76440 | 70.97495 | 33241 ft | 493 kts | 89° |
| 2026-04-13 22:41 | 47.76078 | 71.07616 | 33248 ft | 493 kts | 89° |
| 2026-04-13 22:41 | 47.75701 | 71.17832 | 33251 ft | 494 kts | 89° |
| 2026-04-13 22:42 | 47.75313 | 71.28052 | 33242 ft | 496 kts | 89° |
| 2026-04-13 22:42 | 47.74918 | 71.38287 | 33252 ft | 496 kts | 90° |
| 2026-04-13 22:43 | 47.74510 | 71.48545 | 33247 ft | 497 kts | 90° |
| 2026-04-13 22:43 | 47.74099 | 71.58756 | 33272 ft | 499 kts | 90° |
| 2026-04-13 22:44 | 47.73674 | 71.69052 | 33277 ft | 499 kts | 90° |
| 2026-04-13 22:44 | 47.73239 | 71.79363 | 33276 ft | 500 kts | 90° |
| 2026-04-13 22:45 | 47.72841 | 71.87954 | 33278 ft | 501 kts | 91° |
| 2026-04-13 22:45 | 47.72247 | 71.98273 | 33277 ft | 502 kts | 91° |
| 2026-04-13 22:46 | 47.71620 | 72.08601 | 33279 ft | 502 kts | 91° |
| 2026-04-13 22:46 | 47.71002 | 72.18928 | 33275 ft | 502 kts | 91° |
| 2026-04-13 22:47 | 47.70387 | 72.29204 | 33273 ft | 502 kts | 91° |
| 2026-04-13 22:47 | 47.69760 | 72.39537 | 33273 ft | 501 kts | 91° |
| 2026-04-13 22:48 | 47.69127 | 72.49846 | 33278 ft | 501 kts | 92° |
| 2026-04-13 22:48 | 47.68488 | 72.60088 | 33274 ft | 501 kts | 92° |
| 2026-04-13 22:49 | 47.67835 | 72.70394 | 33273 ft | 501 kts | 92° |
| 2026-04-13 22:49 | 47.67172 | 72.80689 | 33277 ft | 501 kts | 92° |
| 2026-04-13 22:50 | 47.66502 | 72.90975 | 33276 ft | 501 kts | 92° |
| 2026-04-13 22:50 | 47.65823 | 73.01263 | 33278 ft | 501 kts | 92° |
| 2026-04-13 22:51 | 47.65133 | 73.11566 | 33269 ft | 502 kts | 92° |
| 2026-04-13 22:51 | 47.64435 | 73.21843 | 33282 ft | 502 kts | 92° |
| 2026-04-13 22:52 | 47.63729 | 73.32102 | 33274 ft | 502 kts | 92° |
| 2026-04-13 22:52 | 47.63009 | 73.42417 | 33280 ft | 503 kts | 93° |
| 2026-04-13 22:53 | 47.62280 | 73.52743 | 33274 ft | 504 kts | 93° |
| 2026-04-13 22:53 | 47.61538 | 73.63103 | 33276 ft | 505 kts | 93° |
| 2026-04-13 22:54 | 47.60787 | 73.73470 | 33276 ft | 506 kts | 93° |
| 2026-04-13 22:54 | 47.60031 | 73.83770 | 33277 ft | 506 kts | 93° |
| 2026-04-13 22:55 | 47.59261 | 73.94146 | 33275 ft | 506 kts | 93° |
| 2026-04-13 22:55 | 47.58477 | 74.04537 | 33276 ft | 507 kts | 93° |
| 2026-04-13 22:56 | 47.57685 | 74.14925 | 33277 ft | 507 kts | 94° |
| 2026-04-13 22:56 | 47.56886 | 74.25316 | 33280 ft | 508 kts | 94° |
| 2026-04-13 22:57 | 47.56079 | 74.35651 | 33275 ft | 508 kts | 94° |
| 2026-04-13 22:57 | 47.55259 | 74.46045 | 33276 ft | 508 kts | 94° |
| 2026-04-13 22:58 | 47.54427 | 74.56433 | 33278 ft | 508 kts | 94° |
| 2026-04-13 22:58 | 47.53589 | 74.66807 | 33279 ft | 507 kts | 94° |
| 2026-04-13 22:59 | 47.52745 | 74.77128 | 33275 ft | 507 kts | 94° |
| 2026-04-13 22:59 | 47.51889 | 74.87481 | 33275 ft | 507 kts | 94° |
| 2026-04-13 23:00 | 47.51024 | 74.97834 | 33267 ft | 507 kts | 94° |
| 2026-04-13 23:00 | 47.50149 | 75.08192 | 33265 ft | 507 kts | 95° |
| 2026-04-13 23:01 | 47.49264 | 75.18554 | 33266 ft | 508 kts | 95° |
| 2026-04-13 23:01 | 47.48368 | 75.28917 | 33264 ft | 508 kts | 95° |
| 2026-04-13 23:02 | 47.47462 | 75.39299 | 33265 ft | 509 kts | 95° |
| 2026-04-13 23:02 | 47.46553 | 75.49602 | 33272 ft | 509 kts | 95° |
| 2026-04-13 23:03 | 47.45627 | 75.59996 | 33264 ft | 510 kts | 95° |
| 2026-04-13 23:03 | 47.44690 | 75.70402 | 33266 ft | 512 kts | 95° |
| 2026-04-13 23:04 | 47.43738 | 75.80846 | 33258 ft | 513 kts | 95° |
| 2026-04-13 23:04 | 47.42777 | 75.91295 | 33258 ft | 513 kts | 95° |
| 2026-04-13 23:05 | 47.41812 | 76.01678 | 33256 ft | 514 kts | 95° |
| 2026-04-13 23:05 | 47.40831 | 76.12139 | 33261 ft | 514 kts | 95° |
| 2026-04-13 23:06 | 47.39842 | 76.22572 | 33248 ft | 514 kts | 96° |
| 2026-04-13 23:06 | 47.38843 | 76.33007 | 33262 ft | 514 kts | 96° |
| 2026-04-13 23:07 | 47.37832 | 76.43468 | 33263 ft | 514 kts | 96° |
| 2026-04-13 23:07 | 47.36811 | 76.53910 | 33252 ft | 513 kts | 96° |
| 2026-04-13 23:08 | 47.35786 | 76.64309 | 33244 ft | 513 kts | 96° |
| 2026-04-13 23:08 | 47.34755 | 76.74653 | 33251 ft | 513 kts | 96° |
| 2026-04-13 23:09 | 47.33712 | 76.85048 | 33260 ft | 512 kts | 96° |
| 2026-04-13 23:09 | 47.32661 | 76.95426 | 33268 ft | 512 kts | 96° |
| 2026-04-13 23:10 | 47.31613 | 77.05786 | 33274 ft | 511 kts | 95° |
| 2026-04-13 23:10 | 47.30995 | 77.16163 | 33254 ft | 511 kts | 92° |
| 2026-04-13 23:11 | 47.30479 | 77.26637 | 33239 ft | 512 kts | 92° |
| 2026-04-13 23:11 | 47.29940 | 77.37119 | 33231 ft | 513 kts | 92° |
| 2026-04-13 23:12 | 47.29368 | 77.47629 | 33232 ft | 514 kts | 92° |
| 2026-04-13 23:12 | 47.28781 | 77.58125 | 33229 ft | 514 kts | 92° |
| 2026-04-13 23:13 | 47.28185 | 77.68643 | 33230 ft | 515 kts | 92° |
| 2026-04-13 23:13 | 47.27582 | 77.79153 | 33232 ft | 515 kts | 92° |
| 2026-04-13 23:14 | 47.26969 | 77.89624 | 33237 ft | 515 kts | 93° |
| 2026-04-13 23:14 | 47.26344 | 78.00121 | 33242 ft | 515 kts | 93° |
| 2026-04-13 23:15 | 47.25714 | 78.10607 | 33237 ft | 516 kts | 93° |
| 2026-04-13 23:15 | 47.25075 | 78.21073 | 33238 ft | 516 kts | 93° |
| 2026-04-13 23:16 | 47.24419 | 78.31614 | 33242 ft | 517 kts | 93° |
| 2026-04-13 23:16 | 47.23756 | 78.42149 | 33240 ft | 518 kts | 94° |
| 2026-04-13 23:17 | 47.23078 | 78.52727 | 33243 ft | 518 kts | 94° |
| 2026-04-13 23:17 | 47.22391 | 78.63283 | 33237 ft | 518 kts | 94° |
| 2026-04-13 23:18 | 47.21695 | 78.73849 | 33236 ft | 518 kts | 94° |
| 2026-04-13 23:18 | 47.20993 | 78.84380 | 33240 ft | 518 kts | 94° |
| 2026-04-13 23:19 | 47.20283 | 78.94865 | 33238 ft | 518 kts | 94° |
| 2026-04-13 23:19 | 47.19559 | 79.05414 | 33242 ft | 518 kts | 94° |
| 2026-04-13 23:20 | 47.18829 | 79.15960 | 33241 ft | 519 kts | 95° |
| 2026-04-13 23:20 | 47.18072 | 79.26512 | 33240 ft | 519 kts | 95° |
| 2026-04-13 23:21 | 47.17307 | 79.37017 | 33241 ft | 520 kts | 95° |
| 2026-04-13 23:21 | 47.16529 | 79.47593 | 33241 ft | 520 kts | 95° |
| 2026-04-13 23:22 | 47.15744 | 79.58182 | 33240 ft | 521 kts | 95° |
| 2026-04-13 23:22 | 47.14947 | 79.68793 | 33240 ft | 522 kts | 95° |
| 2026-04-13 23:23 | 47.14145 | 79.79327 | 33235 ft | 522 kts | 95° |
| 2026-04-13 23:23 | 47.13327 | 79.89954 | 33238 ft | 522 kts | 95° |
| 2026-04-13 23:24 | 47.12515 | 80.00545 | 33241 ft | 522 kts | 95° |
| 2026-04-13 23:24 | 47.11286 | 80.16467 | 33233 ft | 522 kts | 95° |
| 2026-04-13 23:25 | 47.10481 | 80.27081 | 33233 ft | 523 kts | 96° |
| 2026-04-13 23:25 | 47.09606 | 80.37678 | 33236 ft | 524 kts | 96° |
| 2026-04-13 23:26 | 47.08734 | 80.48301 | 33232 ft | 524 kts | 96° |
| 2026-04-13 23:26 | 47.07864 | 80.58923 | 33232 ft | 525 kts | 96° |
| 2026-04-13 23:27 | 47.06994 | 80.69556 | 33227 ft | 524 kts | 96° |
| 2026-04-13 23:27 | 47.06105 | 80.80161 | 33232 ft | 524 kts | 96° |
| 2026-04-13 23:28 | 47.05207 | 80.90774 | 33228 ft | 524 kts | 96° |
| 2026-04-13 23:28 | 47.04310 | 81.01299 | 33225 ft | 524 kts | 96° |
| 2026-04-13 23:29 | 47.03393 | 81.11901 | 33230 ft | 524 kts | 97° |
| 2026-04-13 23:29 | 47.02468 | 81.22505 | 33229 ft | 524 kts | 97° |
| 2026-04-13 23:30 | 47.01536 | 81.33093 | 33228 ft | 524 kts | 97° |
| 2026-04-13 23:30 | 47.00593 | 81.43706 | 33235 ft | 524 kts | 97° |
| 2026-04-13 23:31 | 46.99643 | 81.54256 | 33223 ft | 525 kts | 97° |
| 2026-04-13 23:31 | 46.98675 | 81.64893 | 33221 ft | 526 kts | 97° |
| 2026-04-13 23:32 | 46.97863 | 81.73730 | 33222 ft | 526 kts | 97° |
| 2026-04-13 23:32 | 46.96880 | 81.84356 | 33221 ft | 527 kts | 97° |
| 2026-04-13 23:33 | 46.95721 | 81.96707 | 33223 ft | 526 kts | 97° |
| 2026-04-13 23:33 | 46.94863 | 82.05599 | 33217 ft | 526 kts | 98° |
| 2026-04-13 23:34 | 46.93834 | 82.16138 | 33220 ft | 527 kts | 98° |
| 2026-04-13 23:34 | 46.92788 | 82.26782 | 33219 ft | 527 kts | 98° |
| 2026-04-13 23:35 | 46.91737 | 82.37395 | 33214 ft | 527 kts | 98° |
| 2026-04-13 23:35 | 46.90675 | 82.48010 | 33212 ft | 528 kts | 98° |
| 2026-04-13 23:36 | 46.89603 | 82.58628 | 33211 ft | 528 kts | 98° |
| 2026-04-13 23:36 | 46.88520 | 82.69252 | 33204 ft | 528 kts | 98° |
| 2026-04-13 23:37 | 46.87433 | 82.79791 | 33195 ft | 528 kts | 99° |
| 2026-04-13 23:37 | 46.85440 | 82.90072 | 33200 ft | 526 kts | 114° |
| 2026-04-13 23:38 | 46.82054 | 82.99493 | 33197 ft | 523 kts | 125° |
| 2026-04-13 23:38 | 46.78102 | 83.08418 | 33194 ft | 523 kts | 125° |
| 2026-04-13 23:39 | 46.74194 | 83.17382 | 33191 ft | 524 kts | 124° |
| 2026-04-13 23:39 | 46.70316 | 83.26374 | 33193 ft | 524 kts | 124° |
| 2026-04-13 23:40 | 46.66432 | 83.35349 | 33188 ft | 524 kts | 125° |
| 2026-04-13 23:40 | 46.62283 | 83.43974 | 33192 ft | 522 kts | 129° |
| 2026-04-13 23:41 | 46.57969 | 83.52478 | 33184 ft | 522 kts | 129° |
| 2026-04-13 23:41 | 46.53663 | 83.60983 | 33169 ft | 521 kts | 129° |
| 2026-04-13 23:42 | 46.49373 | 83.69477 | 33163 ft | 521 kts | 129° |
| 2026-04-13 23:42 | 46.45082 | 83.77963 | 33173 ft | 521 kts | 129° |
| 2026-04-13 23:43 | 46.40812 | 83.86379 | 33217 ft | 520 kts | 129° |
| 2026-04-13 23:43 | 46.36516 | 83.94820 | 33252 ft | 520 kts | 129° |
| 2026-04-13 23:44 | 46.32209 | 84.03258 | 33247 ft | 521 kts | 129° |
| 2026-04-13 23:44 | 46.27920 | 84.11635 | 33242 ft | 521 kts | 129° |
| 2026-04-13 23:45 | 46.23597 | 84.20031 | 33243 ft | 521 kts | 129° |
| 2026-04-13 23:45 | 46.19249 | 84.28406 | 33234 ft | 520 kts | 130° |
| 2026-04-13 23:46 | 46.14897 | 84.36768 | 33238 ft | 520 kts | 130° |
| 2026-04-13 23:46 | 46.10548 | 84.45110 | 33234 ft | 520 kts | 130° |
| 2026-04-13 23:47 | 46.06186 | 84.53446 | 33228 ft | 521 kts | 130° |
| 2026-04-13 23:47 | 46.01844 | 84.61730 | 33228 ft | 521 kts | 130° |
| 2026-04-13 23:48 | 45.97478 | 84.70030 | 33223 ft | 521 kts | 130° |
| 2026-04-13 23:48 | 45.93086 | 84.78358 | 33218 ft | 520 kts | 130° |
| 2026-04-13 23:49 | 45.88714 | 84.86620 | 33217 ft | 519 kts | 130° |
| 2026-04-13 23:49 | 45.84340 | 84.94864 | 33208 ft | 518 kts | 130° |
| 2026-04-13 23:50 | 45.80002 | 85.03016 | 33205 ft | 518 kts | 130° |
| 2026-04-13 23:50 | 45.75619 | 85.11226 | 33199 ft | 517 kts | 130° |
| 2026-04-13 23:51 | 45.71245 | 85.19405 | 33205 ft | 517 kts | 130° |
| 2026-04-13 23:51 | 45.66898 | 85.27518 | 33201 ft | 517 kts | 130° |
| 2026-04-13 23:52 | 45.62527 | 85.35694 | 33194 ft | 518 kts | 130° |
| 2026-04-13 23:52 | 45.58156 | 85.43852 | 33186 ft | 518 kts | 130° |
| 2026-04-13 23:53 | 45.53770 | 85.52017 | 33190 ft | 519 kts | 130° |
| 2026-04-13 23:53 | 45.49369 | 85.60179 | 33179 ft | 519 kts | 130° |
| 2026-04-13 23:54 | 45.44955 | 85.68342 | 33178 ft | 519 kts | 130° |
| 2026-04-13 23:54 | 45.40535 | 85.76493 | 33168 ft | 519 kts | 130° |
| 2026-04-13 23:55 | 45.36110 | 85.84633 | 33166 ft | 519 kts | 130° |
| 2026-04-13 23:55 | 45.31720 | 85.92684 | 33166 ft | 518 kts | 130° |
| 2026-04-13 23:56 | 45.27290 | 86.00786 | 33173 ft | 518 kts | 131° |
| 2026-04-13 23:56 | 45.22862 | 86.08858 | 33151 ft | 517 kts | 131° |
| 2026-04-13 23:57 | 45.18458 | 86.16862 | 33172 ft | 517 kts | 131° |
| 2026-04-13 23:57 | 45.14034 | 86.24883 | 33151 ft | 517 kts | 131° |
| 2026-04-13 23:58 | 45.09600 | 86.32897 | 33145 ft | 516 kts | 131° |
| 2026-04-13 23:58 | 45.05165 | 86.40896 | 33146 ft | 516 kts | 131° |
| 2026-04-13 23:59 | 45.00717 | 86.48894 | 33145 ft | 516 kts | 131° |
| 2026-04-13 23:59 | 44.96275 | 86.56858 | 33150 ft | 516 kts | 131° |
| 2026-04-14 00:00 | 44.91832 | 86.64801 | 33135 ft | 516 kts | 131° |
| 2026-04-14 00:00 | 44.87383 | 86.72735 | 33136 ft | 515 kts | 131° |
| 2026-04-14 00:01 | 44.82960 | 86.80598 | 33139 ft | 515 kts | 131° |
| 2026-04-14 00:01 | 44.78466 | 86.88439 | 33136 ft | 514 kts | 132° |
| 2026-04-14 00:02 | 44.73951 | 86.96258 | 33134 ft | 514 kts | 132° |
| 2026-04-14 00:02 | 44.69443 | 87.04075 | 33126 ft | 514 kts | 132° |
| 2026-04-14 00:03 | 44.64961 | 87.11847 | 33130 ft | 514 kts | 132° |
| 2026-04-14 00:03 | 44.60443 | 87.19657 | 33128 ft | 514 kts | 132° |
| 2026-04-14 00:04 | 44.55932 | 87.27436 | 33128 ft | 513 kts | 132° |
| 2026-04-14 00:04 | 44.51538 | 87.35257 | 33127 ft | 514 kts | 130° |
| 2026-04-14 00:05 | 44.47226 | 87.43256 | 33127 ft | 513 kts | 130° |
| 2026-04-14 00:05 | 44.42907 | 87.51211 | 33128 ft | 513 kts | 130° |
| 2026-04-14 00:06 | 44.38557 | 87.59132 | 33127 ft | 512 kts | 130° |
| 2026-04-14 00:06 | 44.34209 | 87.67029 | 33128 ft | 512 kts | 130° |
| 2026-04-14 00:07 | 44.29926 | 87.74894 | 33128 ft | 512 kts | 129° |
| 2026-04-14 00:07 | 44.25651 | 87.82861 | 33127 ft | 512 kts | 129° |
| 2026-04-14 00:08 | 44.21372 | 87.90793 | 33128 ft | 511 kts | 130° |
| 2026-04-14 00:08 | 44.17113 | 87.98722 | 33124 ft | 512 kts | 127° |
| 2026-04-14 00:09 | 44.13398 | 88.07218 | 33131 ft | 513 kts | 122° |
| 2026-04-14 00:09 | 44.09807 | 88.15765 | 33127 ft | 513 kts | 123° |
| 2026-04-14 00:10 | 44.06167 | 88.24325 | 33129 ft | 513 kts | 123° |
| 2026-04-14 00:10 | 44.02501 | 88.32860 | 33124 ft | 514 kts | 123° |
| 2026-04-14 00:11 | 43.98841 | 88.41338 | 33126 ft | 514 kts | 123° |
| 2026-04-14 00:11 | 43.95165 | 88.49831 | 33136 ft | 514 kts | 123° |
| 2026-04-14 00:12 | 43.91471 | 88.58340 | 33131 ft | 514 kts | 123° |
| 2026-04-14 00:12 | 43.87777 | 88.66824 | 33126 ft | 513 kts | 123° |
| 2026-04-14 00:13 | 43.84080 | 88.75298 | 33127 ft | 514 kts | 124° |
| 2026-04-14 00:13 | 43.80361 | 88.83788 | 33134 ft | 516 kts | 124° |
| 2026-04-14 00:14 | 43.76651 | 88.92248 | 33125 ft | 517 kts | 124° |
| 2026-04-14 00:14 | 43.72895 | 89.00778 | 33130 ft | 518 kts | 124° |
| 2026-04-14 00:15 | 43.69137 | 89.09285 | 33133 ft | 518 kts | 124° |
| 2026-04-14 00:15 | 43.65372 | 89.17789 | 33123 ft | 518 kts | 124° |
| 2026-04-14 00:16 | 43.61634 | 89.26210 | 33137 ft | 517 kts | 124° |
| 2026-04-14 00:16 | 43.57868 | 89.34667 | 33129 ft | 517 kts | 124° |
| 2026-04-14 00:17 | 43.54113 | 89.43105 | 33137 ft | 516 kts | 123° |
| 2026-04-14 00:17 | 43.50417 | 89.51574 | 33132 ft | 516 kts | 123° |
| 2026-04-14 00:18 | 43.46728 | 89.60054 | 33124 ft | 516 kts | 123° |
| 2026-04-14 00:18 | 43.43650 | 89.67086 | 33163 ft | 516 kts | 123° |
| 2026-04-14 00:19 | 43.39922 | 89.75562 | 33143 ft | 517 kts | 124° |
| 2026-04-14 00:19 | 43.36191 | 89.84015 | 33136 ft | 517 kts | 124° |
| 2026-04-14 00:20 | 43.32484 | 89.92403 | 33141 ft | 517 kts | 124° |
| 2026-04-14 00:20 | 43.28741 | 90.00839 | 33143 ft | 517 kts | 124° |
| 2026-04-14 00:21 | 43.24989 | 90.09275 | 33131 ft | 517 kts | 124° |
| 2026-04-14 00:21 | 43.21237 | 90.17688 | 33146 ft | 517 kts | 124° |
| 2026-04-14 00:22 | 43.17483 | 90.26091 | 33129 ft | 517 kts | 124° |
| 2026-04-14 00:22 | 43.13725 | 90.34488 | 33141 ft | 516 kts | 124° |
| 2026-04-14 00:23 | 43.09988 | 90.42821 | 33135 ft | 516 kts | 124° |
| 2026-04-14 00:23 | 43.06219 | 90.51200 | 33138 ft | 516 kts | 124° |
| 2026-04-14 00:24 | 43.02440 | 90.59575 | 33137 ft | 516 kts | 124° |
| 2026-04-14 00:24 | 42.98663 | 90.67923 | 33144 ft | 516 kts | 124° |
| 2026-04-14 00:25 | 42.94882 | 90.76262 | 33145 ft | 517 kts | 124° |
| 2026-04-14 00:25 | 42.91102 | 90.84564 | 33147 ft | 517 kts | 125° |
| 2026-04-14 00:26 | 42.86766 | 90.92310 | 33140 ft | 512 kts | 137° |
| 2026-04-14 00:26 | 42.81653 | 90.99007 | 33144 ft | 509 kts | 141° |
| 2026-04-14 00:27 | 42.76494 | 91.05638 | 33145 ft | 509 kts | 140° |
| 2026-04-14 00:27 | 42.71361 | 91.12299 | 33150 ft | 510 kts | 140° |
| 2026-04-14 00:28 | 42.66260 | 91.18939 | 33148 ft | 511 kts | 140° |
| 2026-04-14 00:28 | 42.61119 | 91.25617 | 33159 ft | 511 kts | 140° |
| 2026-04-14 00:29 | 42.55975 | 91.32281 | 33147 ft | 511 kts | 140° |
| 2026-04-14 00:29 | 42.50860 | 91.38887 | 33153 ft | 510 kts | 140° |
| 2026-04-14 00:30 | 42.45716 | 91.45511 | 33144 ft | 510 kts | 140° |
| 2026-04-14 00:30 | 42.40558 | 91.52143 | 33147 ft | 510 kts | 140° |
| 2026-04-14 00:31 | 42.35415 | 91.58739 | 33146 ft | 509 kts | 140° |
| 2026-04-14 00:31 | 42.30297 | 91.65290 | 33148 ft | 509 kts | 140° |
| 2026-04-14 00:32 | 42.25017 | 91.71601 | 33130 ft | 502 kts | 151° |
| 2026-04-14 00:32 | 42.21968 | 91.73835 | 33171 ft | 493 kts | 162° |
| 2026-04-14 00:33 | 42.15434 | 91.76120 | 33152 ft | 480 kts | 180° |
| 2026-04-14 00:33 | 42.08771 | 91.77085 | 33164 ft | 483 kts | 178° |
| 2026-04-14 00:34 | 42.02123 | 91.78267 | 33161 ft | 485 kts | 178° |
| 2026-04-14 00:34 | 41.95417 | 91.79477 | 33157 ft | 486 kts | 178° |
| 2026-04-14 00:35 | 41.88701 | 91.80669 | 33159 ft | 486 kts | 178° |
| 2026-04-14 00:35 | 41.82029 | 91.81844 | 33160 ft | 486 kts | 178° |
| 2026-04-14 00:36 | 41.75308 | 91.83025 | 33149 ft | 486 kts | 178° |
| 2026-04-14 00:36 | 41.68603 | 91.84202 | 33162 ft | 484 kts | 177° |
| 2026-04-14 00:36 | 41.65314 | 91.85232 | 33144 ft | 492 kts | 162° |
| 2026-04-14 00:37 | 41.62353 | 91.87502 | 33168 ft | 503 kts | 145° |
| 2026-04-14 00:37 | 41.59903 | 91.90892 | 33151 ft | 513 kts | 127° |
| 2026-04-14 00:37 | 41.57421 | 91.96315 | 33170 ft | 513 kts | 124° |
| 2026-04-14 00:38 | 41.54294 | 92.03076 | 33171 ft | 516 kts | 125° |
| 2026-04-14 00:38 | 41.50419 | 92.11188 | 33173 ft | 520 kts | 126° |
| 2026-04-14 00:39 | 41.46492 | 92.19300 | 33171 ft | 521 kts | 126° |
| 2026-04-14 00:39 | 41.42539 | 92.27439 | 33170 ft | 522 kts | 126° |
| 2026-04-14 00:40 | 41.38592 | 92.35556 | 33160 ft | 521 kts | 126° |
| 2026-04-14 00:40 | 41.34674 | 92.43603 | 33162 ft | 520 kts | 126° |
| 2026-04-14 00:41 | 41.30735 | 92.51665 | 33159 ft | 518 kts | 126° |
| 2026-04-14 00:41 | 41.26801 | 92.59705 | 33175 ft | 518 kts | 126° |
| 2026-04-14 00:42 | 41.22863 | 92.67721 | 33179 ft | 517 kts | 126° |
| 2026-04-14 00:42 | 41.18925 | 92.75722 | 33179 ft | 517 kts | 126° |
| 2026-04-14 00:43 | 41.15000 | 92.83675 | 33165 ft | 518 kts | 126° |
| 2026-04-14 00:43 | 41.11038 | 92.91680 | 33158 ft | 519 kts | 126° |
| 2026-04-14 00:44 | 41.07082 | 92.99652 | 33164 ft | 521 kts | 126° |
| 2026-04-14 00:44 | 41.03087 | 93.07684 | 33170 ft | 521 kts | 127° |
| 2026-04-14 00:45 | 40.99086 | 93.15703 | 33154 ft | 521 kts | 127° |
| 2026-04-14 00:45 | 40.95090 | 93.23698 | 33161 ft | 520 kts | 127° |
| 2026-04-14 00:46 | 40.91110 | 93.31640 | 33170 ft | 520 kts | 127° |
| 2026-04-14 00:46 | 40.87103 | 93.39614 | 33159 ft | 521 kts | 127° |
| 2026-04-14 00:47 | 40.83085 | 93.47588 | 33168 ft | 521 kts | 127° |
| 2026-04-14 00:47 | 40.79063 | 93.55553 | 33164 ft | 521 kts | 127° |
| 2026-04-14 00:48 | 40.74985 | 93.63463 | 33170 ft | 520 kts | 130° |
| 2026-04-14 00:48 | 40.70503 | 93.70937 | 33175 ft | 519 kts | 132° |
| 2026-04-14 00:49 | 40.65993 | 93.78321 | 33167 ft | 520 kts | 132° |
| 2026-04-14 00:49 | 40.61473 | 93.85763 | 33175 ft | 521 kts | 132° |
| 2026-04-14 00:50 | 40.56972 | 93.93202 | 33169 ft | 522 kts | 132° |
| 2026-04-14 00:50 | 40.52432 | 94.00693 | 33171 ft | 523 kts | 132° |
| 2026-04-14 00:51 | 40.47996 | 94.07990 | 33177 ft | 523 kts | 132° |
| 2026-04-14 00:51 | 40.43457 | 94.15437 | 33184 ft | 524 kts | 132° |
| 2026-04-14 00:52 | 40.38834 | 94.22998 | 33074 ft | 525 kts | 132° |
| 2026-04-14 00:52 | 40.34257 | 94.30472 | 33144 ft | 523 kts | 132° |
| 2026-04-14 00:53 | 40.29728 | 94.37850 | 33147 ft | 523 kts | 132° |
| 2026-04-14 00:53 | 40.25151 | 94.45287 | 33148 ft | 522 kts | 132° |
| 2026-04-14 00:54 | 40.20583 | 94.52695 | 33148 ft | 522 kts | 132° |
| 2026-04-14 00:54 | 40.16014 | 94.60081 | 33146 ft | 522 kts | 132° |
| 2026-04-14 00:55 | 40.11489 | 94.67517 | 33149 ft | 524 kts | 129° |
| 2026-04-14 00:55 | 40.07745 | 94.75728 | 33166 ft | 528 kts | 117° |
| 2026-04-14 00:56 | 40.04606 | 94.84329 | 33152 ft | 528 kts | 117° |
| 2026-04-14 00:56 | 40.01394 | 94.92973 | 33147 ft | 528 kts | 118° |
| 2026-04-14 00:57 | 39.98140 | 95.01566 | 33158 ft | 528 kts | 118° |
| 2026-04-14 00:57 | 39.94883 | 95.10150 | 33168 ft | 527 kts | 118° |
| 2026-04-14 00:58 | 39.91655 | 95.18677 | 33151 ft | 527 kts | 118° |
| 2026-04-14 00:58 | 39.88412 | 95.27239 | 33167 ft | 527 kts | 118° |
| 2026-04-14 00:59 | 39.85159 | 95.35798 | 33166 ft | 527 kts | 118° |
| 2026-04-14 00:59 | 39.81922 | 95.44287 | 33155 ft | 526 kts | 118° |
| 2026-04-14 01:00 | 39.78661 | 95.52813 | 33169 ft | 527 kts | 118° |
| 2026-04-14 01:00 | 39.75380 | 95.61371 | 33158 ft | 527 kts | 118° |
| 2026-04-14 01:01 | 39.72100 | 95.69899 | 33165 ft | 527 kts | 118° |
| 2026-04-14 01:01 | 39.68819 | 95.78408 | 33153 ft | 527 kts | 118° |
| 2026-04-14 01:02 | 39.65546 | 95.86868 | 33177 ft | 528 kts | 118° |
| 2026-04-14 01:02 | 39.62242 | 95.95388 | 33168 ft | 528 kts | 118° |
| 2026-04-14 01:03 | 39.58924 | 96.03923 | 33177 ft | 529 kts | 118° |
| 2026-04-14 01:03 | 39.55604 | 96.12433 | 33171 ft | 529 kts | 118° |
| 2026-04-14 01:04 | 39.52253 | 96.20923 | 33163 ft | 529 kts | 118° |
| 2026-04-14 01:04 | 39.49459 | 96.27965 | 33176 ft | 528 kts | 119° |
| 2026-04-14 01:05 | 39.45551 | 96.37810 | 33165 ft | 527 kts | 119° |
| 2026-04-14 01:05 | 39.42758 | 96.44832 | 33167 ft | 526 kts | 119° |
| 2026-04-14 01:06 | 39.39402 | 96.53251 | 33180 ft | 526 kts | 119° |
| 2026-04-14 01:06 | 39.36063 | 96.61596 | 33164 ft | 525 kts | 119° |
| 2026-04-14 01:07 | 39.32699 | 96.69989 | 33176 ft | 525 kts | 119° |
| 2026-04-14 01:07 | 39.29333 | 96.78360 | 33184 ft | 524 kts | 119° |
| 2026-04-14 01:08 | 39.25968 | 96.86717 | 33180 ft | 524 kts | 119° |
| 2026-04-14 01:08 | 39.22666 | 96.95051 | 33173 ft | 523 kts | 118° |
| 2026-04-14 01:09 | 39.19354 | 97.03441 | 33181 ft | 524 kts | 119° |
| 2026-04-14 01:09 | 39.16023 | 97.11832 | 33181 ft | 526 kts | 119° |
| 2026-04-14 01:10 | 39.12697 | 97.20173 | 33176 ft | 526 kts | 119° |
| 2026-04-14 01:10 | 39.09345 | 97.28553 | 33191 ft | 526 kts | 119° |
| 2026-04-14 01:11 | 39.05980 | 97.36940 | 33189 ft | 526 kts | 119° |
| 2026-04-14 01:11 | 39.02618 | 97.45308 | 33184 ft | 526 kts | 119° |
| 2026-04-14 01:12 | 38.99256 | 97.53653 | 33190 ft | 526 kts | 120° |
| 2026-04-14 01:12 | 38.95907 | 97.61940 | 33193 ft | 525 kts | 120° |
| 2026-04-14 01:13 | 38.92512 | 97.70321 | 33197 ft | 525 kts | 120° |
| 2026-04-14 01:13 | 38.89151 | 97.78580 | 33201 ft | 525 kts | 120° |
| 2026-04-14 01:14 | 38.85763 | 97.86881 | 33201 ft | 525 kts | 120° |
| 2026-04-14 01:14 | 38.82359 | 97.95197 | 33208 ft | 525 kts | 120° |
| 2026-04-14 01:15 | 38.78961 | 98.03498 | 33202 ft | 526 kts | 120° |
| 2026-04-14 01:15 | 38.75568 | 98.11758 | 33202 ft | 526 kts | 120° |
| 2026-04-14 01:16 | 38.72148 | 98.20043 | 33205 ft | 526 kts | 120° |
| 2026-04-14 01:16 | 38.68727 | 98.28323 | 33207 ft | 527 kts | 120° |
| 2026-04-14 01:18 | 38.54981 | 98.61375 | 33214 ft | 526 kts | 121° |
| 2026-04-14 01:19 | 38.51533 | 98.69607 | 33227 ft | 525 kts | 121° |
| 2026-04-14 01:19 | 38.48087 | 98.77823 | 33216 ft | 524 kts | 121° |
| 2026-04-14 01:20 | 38.44631 | 98.86026 | 33223 ft | 524 kts | 121° |
| 2026-04-14 01:20 | 38.41176 | 98.94215 | 33232 ft | 525 kts | 121° |
| 2026-04-14 01:21 | 38.37706 | 99.02418 | 33225 ft | 526 kts | 121° |
| 2026-04-14 01:21 | 38.34221 | 99.10634 | 33242 ft | 526 kts | 121° |
| 2026-04-14 01:22 | 38.30736 | 99.18826 | 33228 ft | 526 kts | 121° |
| 2026-04-14 01:22 | 38.27269 | 99.26956 | 33233 ft | 526 kts | 121° |
| 2026-04-14 01:23 | 38.23779 | 99.35121 | 33240 ft | 525 kts | 121° |
| 2026-04-14 01:23 | 38.20264 | 99.43324 | 33236 ft | 525 kts | 121° |
| 2026-04-14 01:24 | 38.16784 | 99.51418 | 33237 ft | 525 kts | 121° |
| 2026-04-14 01:24 | 38.13275 | 99.59558 | 33237 ft | 525 kts | 121° |
| 2026-04-14 01:25 | 38.09763 | 99.67698 | 33245 ft | 525 kts | 121° |
| 2026-04-14 01:25 | 38.06244 | 99.75823 | 33241 ft | 525 kts | 121° |
| 2026-04-14 01:26 | 38.02719 | 99.83933 | 33247 ft | 525 kts | 121° |
| 2026-04-14 01:26 | 37.99190 | 99.92044 | 33248 ft | 525 kts | 121° |
| 2026-04-14 01:27 | 37.95656 | 100.00144 | 33249 ft | 525 kts | 121° |
| 2026-04-14 01:27 | 37.92118 | 100.08236 | 33248 ft | 525 kts | 122° |
| 2026-04-14 01:28 | 37.88572 | 100.16322 | 33262 ft | 525 kts | 122° |
| 2026-04-14 01:28 | 37.85015 | 100.24410 | 33263 ft | 525 kts | 122° |
| 2026-04-14 01:29 | 37.81458 | 100.32479 | 33248 ft | 525 kts | 122° |
| 2026-04-14 01:29 | 37.77893 | 100.40544 | 33268 ft | 525 kts | 122° |
| 2026-04-14 01:30 | 37.74330 | 100.48595 | 33279 ft | 525 kts | 122° |
| 2026-04-14 01:30 | 37.70758 | 100.56641 | 33268 ft | 525 kts | 122° |
| 2026-04-14 01:31 | 37.67182 | 100.64674 | 33282 ft | 525 kts | 122° |
| 2026-04-14 01:31 | 37.63662 | 100.72691 | 33272 ft | 526 kts | 121° |
| 2026-04-14 01:32 | 37.60249 | 100.80854 | 33278 ft | 526 kts | 121° |
| 2026-04-14 01:32 | 37.56843 | 100.89027 | 33285 ft | 527 kts | 121° |
| 2026-04-14 01:33 | 37.53407 | 100.97183 | 33280 ft | 527 kts | 121° |
| 2026-04-14 01:33 | 37.49954 | 101.05325 | 33283 ft | 527 kts | 122° |
| 2026-04-14 01:34 | 37.46500 | 101.13460 | 33281 ft | 527 kts | 122° |
| 2026-04-14 01:34 | 37.43046 | 101.21571 | 33285 ft | 526 kts | 122° |
| 2026-04-14 01:35 | 37.39583 | 101.29682 | 33286 ft | 526 kts | 122° |
| 2026-04-14 01:35 | 37.36118 | 101.37780 | 33284 ft | 526 kts | 122° |
| 2026-04-14 01:36 | 37.32650 | 101.45870 | 33296 ft | 526 kts | 122° |
| 2026-04-14 01:36 | 37.29448 | 101.54146 | 33295 ft | 529 kts | 114° |
| 2026-04-14 01:37 | 37.27300 | 101.63014 | 33294 ft | 532 kts | 107° |
| 2026-04-14 01:37 | 37.25357 | 101.71893 | 33297 ft | 531 kts | 108° |
| 2026-04-14 01:38 | 37.22292 | 101.85337 | 33299 ft | 532 kts | 108° |
| 2026-04-14 01:38 | 37.20235 | 101.94247 | 33297 ft | 533 kts | 109° |
| 2026-04-14 01:39 | 37.18167 | 102.03175 | 33296 ft | 532 kts | 109° |
| 2026-04-14 01:39 | 37.16092 | 102.12068 | 33314 ft | 532 kts | 109° |
| 2026-04-14 01:40 | 37.14014 | 102.20922 | 33303 ft | 534 kts | 109° |
| 2026-04-14 01:40 | 37.11762 | 102.29767 | 33301 ft | 531 kts | 115° |
| 2026-04-14 01:41 | 37.08462 | 102.37976 | 33303 ft | 525 kts | 127° |
| 2026-04-14 01:41 | 37.04526 | 102.45684 | 33295 ft | 526 kts | 127° |
| 2026-04-14 01:42 | 37.00600 | 102.53426 | 33293 ft | 527 kts | 127° |
| 2026-04-14 01:42 | 36.96705 | 102.61184 | 33301 ft | 527 kts | 127° |
| 2026-04-14 01:43 | 36.92817 | 102.68947 | 33295 ft | 527 kts | 127° |
| 2026-04-14 01:43 | 36.88921 | 102.76693 | 33309 ft | 527 kts | 127° |
| 2026-04-14 01:44 | 36.85018 | 102.84438 | 33313 ft | 527 kts | 127° |
| 2026-04-14 01:44 | 36.81160 | 102.92219 | 33310 ft | 529 kts | 123° |
| 2026-04-14 01:45 | 36.77912 | 103.00501 | 33322 ft | 532 kts | 120° |
| 2026-04-14 01:45 | 36.74745 | 103.08846 | 33306 ft | 533 kts | 120° |
| 2026-04-14 01:46 | 36.71538 | 103.17163 | 33314 ft | 532 kts | 120° |
| 2026-04-14 01:46 | 36.68309 | 103.25442 | 33308 ft | 531 kts | 120° |
| 2026-04-14 01:47 | 36.65073 | 103.33715 | 33320 ft | 531 kts | 121° |
| 2026-04-14 01:47 | 36.61827 | 103.41999 | 33313 ft | 532 kts | 121° |
| 2026-04-14 01:48 | 36.58578 | 103.50274 | 33308 ft | 533 kts | 121° |
| 2026-04-14 01:48 | 36.55326 | 103.58535 | 33308 ft | 533 kts | 121° |
| 2026-04-14 01:49 | 36.51882 | 103.66600 | 33318 ft | 530 kts | 126° |
| 2026-04-14 01:49 | 36.48149 | 103.74491 | 33312 ft | 530 kts | 126° |
| 2026-04-14 01:50 | 36.44413 | 103.82386 | 33313 ft | 531 kts | 126° |
| 2026-04-14 01:50 | 36.40693 | 103.90305 | 33312 ft | 531 kts | 126° |
| 2026-04-14 01:51 | 36.36965 | 103.98239 | 33308 ft | 532 kts | 126° |
| 2026-04-14 01:51 | 36.33232 | 104.06155 | 33322 ft | 531 kts | 126° |
| 2026-04-14 01:52 | 36.30129 | 104.12733 | 33309 ft | 531 kts | 126° |
| 2026-04-14 01:52 | 36.25773 | 104.21972 | 33306 ft | 531 kts | 126° |
| 2026-04-14 01:53 | 36.22673 | 104.28531 | 33300 ft | 531 kts | 126° |
| 2026-04-14 01:53 | 36.18937 | 104.36418 | 33305 ft | 530 kts | 126° |
| 2026-04-14 01:54 | 36.15193 | 104.44273 | 33299 ft | 530 kts | 126° |
| 2026-04-14 01:54 | 36.11443 | 104.52120 | 33307 ft | 529 kts | 126° |
| 2026-04-14 01:55 | 36.07690 | 104.59954 | 33305 ft | 529 kts | 126° |
| 2026-04-14 01:55 | 36.03933 | 104.67785 | 33300 ft | 530 kts | 126° |
| 2026-04-14 01:56 | 36.00171 | 104.75610 | 33296 ft | 530 kts | 126° |
| 2026-04-14 01:56 | 35.96402 | 104.83435 | 33289 ft | 530 kts | 127° |
| 2026-04-14 01:57 | 35.92636 | 104.91238 | 33277 ft | 529 kts | 127° |
| 2026-04-14 01:57 | 35.88868 | 104.99023 | 33284 ft | 528 kts | 127° |
| 2026-04-14 01:58 | 35.85112 | 105.06800 | 33284 ft | 527 kts | 127° |
| 2026-04-14 01:58 | 35.81390 | 105.14510 | 33275 ft | 527 kts | 127° |
| 2026-04-14 01:59 | 35.77636 | 105.22265 | 33278 ft | 527 kts | 127° |
| 2026-04-14 01:59 | 35.73880 | 105.30007 | 33271 ft | 526 kts | 127° |
| 2026-04-14 02:00 | 35.70119 | 105.37736 | 33270 ft | 527 kts | 127° |
| 2026-04-14 02:00 | 35.66346 | 105.45470 | 33261 ft | 527 kts | 127° |
| 2026-04-14 02:01 | 35.62567 | 105.53200 | 33264 ft | 528 kts | 127° |
| 2026-04-14 02:01 | 35.58776 | 105.60946 | 33249 ft | 529 kts | 127° |
| 2026-04-14 02:02 | 35.55091 | 105.68784 | 33244 ft | 533 kts | 121° |
| 2026-04-14 02:02 | 35.52461 | 105.77358 | 33251 ft | 541 kts | 110° |
| 2026-04-14 02:03 | 35.50955 | 105.86457 | 33244 ft | 545 kts | 103° |
| 2026-04-14 02:03 | 35.49669 | 105.95607 | 33237 ft | 544 kts | 103° |
| 2026-04-14 02:04 | 35.48332 | 106.04745 | 33239 ft | 543 kts | 104° |
| 2026-04-14 02:04 | 35.46953 | 106.13850 | 33235 ft | 543 kts | 104° |
| 2026-04-14 02:05 | 35.45561 | 106.22942 | 33233 ft | 542 kts | 104° |
| 2026-04-14 02:05 | 35.44168 | 106.32024 | 33226 ft | 541 kts | 104° |
| 2026-04-14 02:06 | 35.42774 | 106.41091 | 33225 ft | 541 kts | 104° |
| 2026-04-14 02:06 | 35.41370 | 106.50163 | 33226 ft | 542 kts | 104° |
| 2026-04-14 02:07 | 35.39956 | 106.59240 | 33215 ft | 542 kts | 104° |
| 2026-04-14 02:07 | 35.38539 | 106.68303 | 33211 ft | 541 kts | 105° |
| 2026-04-14 02:08 | 35.37116 | 106.77357 | 33209 ft | 541 kts | 105° |
| 2026-04-14 02:08 | 35.35691 | 106.86385 | 33205 ft | 540 kts | 105° |
| 2026-04-14 02:09 | 35.34266 | 106.95356 | 33209 ft | 540 kts | 105° |
| 2026-04-14 02:09 | 35.32829 | 107.04385 | 33199 ft | 540 kts | 105° |
| 2026-04-14 02:10 | 35.31388 | 107.13401 | 33199 ft | 540 kts | 105° |
| 2026-04-14 02:10 | 35.29942 | 107.22432 | 33192 ft | 540 kts | 105° |
| 2026-04-14 02:11 | 35.28489 | 107.31438 | 33197 ft | 539 kts | 105° |
| 2026-04-14 02:11 | 35.27758 | 107.35946 | 32959 ft | 543 kts | 105° |
| 2026-04-14 02:11 | 35.27012 | 107.40535 | 32024 ft | 553 kts | 105° |
| 2026-04-14 02:12 | 35.26263 | 107.45153 | 31278 ft | 552 kts | 104° |
| 2026-04-14 02:12 | 35.25521 | 107.49726 | 30713 ft | 545 kts | 104° |
| 2026-04-14 02:12 | 35.24784 | 107.54256 | 30138 ft | 540 kts | 103° |
| 2026-04-14 02:12 | 35.24038 | 107.58734 | 29536 ft | 535 kts | 103° |
| 2026-04-14 02:13 | 35.23291 | 107.63166 | 28987 ft | 530 kts | 103° |
| 2026-04-14 02:13 | 35.22550 | 107.67572 | 28390 ft | 526 kts | 103° |
| 2026-04-14 02:13 | 35.21818 | 107.71936 | 27804 ft | 521 kts | 103° |
| 2026-04-14 02:13 | 35.20832 | 107.76137 | 27213 ft | 510 kts | 116° |
| 2026-04-14 02:14 | 35.19050 | 107.79804 | 26647 ft | 496 kts | 134° |
| 2026-04-14 02:14 | 35.16686 | 107.82763 | 26120 ft | 482 kts | 140° |
| 2026-04-14 02:14 | 35.14339 | 107.85689 | 25580 ft | 480 kts | 137° |
| 2026-04-14 02:14 | 35.12073 | 107.88651 | 25030 ft | 477 kts | 136° |
| 2026-04-14 02:15 | 35.09837 | 107.91643 | 24483 ft | 474 kts | 136° |
| 2026-04-14 02:15 | 35.07636 | 107.94604 | 23936 ft | 470 kts | 135° |
| 2026-04-14 02:15 | 35.05447 | 107.97544 | 23409 ft | 466 kts | 135° |
| 2026-04-14 02:15 | 35.03269 | 108.00455 | 22878 ft | 462 kts | 135° |
| 2026-04-14 02:16 | 35.01107 | 108.03334 | 22365 ft | 458 kts | 135° |
| 2026-04-14 02:16 | 34.98961 | 108.06189 | 21836 ft | 454 kts | 135° |
| 2026-04-14 02:16 | 34.96834 | 108.09015 | 21331 ft | 450 kts | 135° |
| 2026-04-14 02:16 | 34.94725 | 108.11812 | 20825 ft | 446 kts | 135° |
| 2026-04-14 02:17 | 34.92631 | 108.14585 | 20322 ft | 442 kts | 135° |
| 2026-04-14 02:17 | 34.90555 | 108.17336 | 19821 ft | 439 kts | 134° |
| 2026-04-14 02:17 | 34.88524 | 108.20021 | 19313 ft | 435 kts | 134° |
| 2026-04-14 02:17 | 34.86473 | 108.22715 | 18824 ft | 432 kts | 135° |
| 2026-04-14 02:18 | 34.84432 | 108.25378 | 18325 ft | 429 kts | 134° |
| 2026-04-14 02:18 | 34.82405 | 108.28018 | 17840 ft | 425 kts | 134° |
| 2026-04-14 02:18 | 34.80390 | 108.30641 | 17355 ft | 422 kts | 134° |
| 2026-04-14 02:18 | 34.78395 | 108.33239 | 16869 ft | 419 kts | 134° |
| 2026-04-14 02:19 | 34.76413 | 108.35820 | 16386 ft | 416 kts | 134° |
| 2026-04-14 02:19 | 34.74443 | 108.38383 | 15899 ft | 413 kts | 133° |
| 2026-04-14 02:19 | 34.72488 | 108.40925 | 15428 ft | 410 kts | 133° |
| 2026-04-14 02:19 | 34.70547 | 108.43449 | 14972 ft | 407 kts | 133° |
| 2026-04-14 02:20 | 34.68640 | 108.45928 | 14794 ft | 396 kts | 133° |
| 2026-04-14 02:20 | 34.66780 | 108.48342 | 14596 ft | 387 kts | 133° |
| 2026-04-14 02:20 | 34.64964 | 108.50698 | 14425 ft | 378 kts | 133° |
| 2026-04-14 02:20 | 34.63190 | 108.52998 | 14279 ft | 368 kts | 133° |
| 2026-04-14 02:21 | 34.61458 | 108.55241 | 14113 ft | 360 kts | 133° |
| 2026-04-14 02:21 | 34.59770 | 108.57427 | 13969 ft | 351 kts | 133° |
| 2026-04-14 02:21 | 34.58117 | 108.59561 | 13828 ft | 342 kts | 133° |
| 2026-04-14 02:21 | 34.56331 | 108.61349 | 13671 ft | 330 kts | 153° |
| 2026-04-14 02:22 | 34.54172 | 108.62116 | 13469 ft | 322 kts | 176° |
| 2026-04-14 02:22 | 34.51965 | 108.61989 | 13272 ft | 315 kts | 193° |
| 2026-04-14 02:22 | 34.49899 | 108.61286 | 13165 ft | 302 kts | 198° |
| 2026-04-14 02:22 | 34.47961 | 108.60554 | 12987 ft | 282 kts | 198° |
| 2026-04-14 02:23 | 34.46258 | 108.59568 | 12609 ft | 264 kts | 224° |
| 2026-04-14 02:23 | 34.45049 | 108.57975 | 12177 ft | 253 kts | 231° |
| 2026-04-14 02:23 | 34.43886 | 108.56380 | 11548 ft | 253 kts | 230° |
| 2026-04-14 02:23 | 34.42712 | 108.54791 | 11106 ft | 251 kts | 230° |
| 2026-04-14 02:24 | 34.41575 | 108.53249 | 10803 ft | 248 kts | 230° |
| 2026-04-14 02:24 | 34.40416 | 108.51676 | 10501 ft | 246 kts | 230° |
| 2026-04-14 02:24 | 34.39295 | 108.50154 | 10212 ft | 245 kts | 230° |
| 2026-04-14 02:24 | 34.38158 | 108.48612 | 9919 ft | 245 kts | 229° |
| 2026-04-14 02:25 | 34.37019 | 108.47071 | 9628 ft | 246 kts | 230° |
| 2026-04-14 02:25 | 34.35881 | 108.45529 | 9335 ft | 245 kts | 229° |
| 2026-04-14 02:25 | 34.34726 | 108.44026 | 9031 ft | 242 kts | 220° |
| 2026-04-14 02:25 | 34.33228 | 108.43179 | 8764 ft | 236 kts | 186° |
| 2026-04-14 02:26 | 34.31639 | 108.43304 | 8709 ft | 233 kts | 168° |
| 2026-04-14 02:26 | 34.30011 | 108.43816 | 8358 ft | 247 kts | 164° |
| 2026-04-14 02:26 | 34.28349 | 108.44388 | 8005 ft | 248 kts | 165° |
| 2026-04-14 02:26 | 34.26706 | 108.44943 | 7685 ft | 242 kts | 165° |
| 2026-04-14 02:27 | 34.25190 | 108.45689 | 7378 ft | 232 kts | 142° |
| 2026-04-14 02:27 | 34.24252 | 108.47171 | 7117 ft | 217 kts | 108° |
| 2026-04-14 02:27 | 34.24185 | 108.48895 | 6829 ft | 200 kts | 68° |
| 2026-04-14 02:27 | 34.24851 | 108.50375 | 6682 ft | 207 kts | 57° |
| 2026-04-14 02:28 | 34.25640 | 108.51856 | 6418 ft | 211 kts | 56° |
| 2026-04-14 02:28 | 34.26465 | 108.53330 | 6156 ft | 211 kts | 53° |
| 2026-04-14 02:28 | 34.27367 | 108.54730 | 5877 ft | 211 kts | 49° |
| 2026-04-14 02:28 | 34.28309 | 108.56073 | 5603 ft | 208 kts | 48° |
| 2026-04-14 02:29 | 34.29255 | 108.57385 | 5318 ft | 205 kts | 47° |
| 2026-04-14 02:29 | 34.30190 | 108.58672 | 5048 ft | 202 kts | 47° |
| 2026-04-14 02:29 | 34.31116 | 108.59949 | 4794 ft | 202 kts | 48° |
| 2026-04-14 02:29 | 34.32049 | 108.61235 | 4531 ft | 204 kts | 48° |
| 2026-04-14 02:30 | 34.32989 | 108.62530 | 4254 ft | 205 kts | 48° |
| 2026-04-14 02:30 | 34.33927 | 108.63827 | 3978 ft | 204 kts | 48° |
| 2026-04-14 02:30 | 34.34849 | 108.65099 | 3696 ft | 196 kts | 48° |
| 2026-04-14 02:30 | 34.35741 | 108.66331 | 3466 ft | 193 kts | 48° |
| 2026-04-14 02:31 | 34.36597 | 108.67512 | 3224 ft | 180 kts | 49° |
| 2026-04-14 02:31 | 34.37397 | 108.68617 | 2948 ft | 169 kts | 49° |
| 2026-04-14 02:31 | 34.38156 | 108.69663 | 2773 ft | 164 kts | 48° |
| 2026-04-14 02:31 | 34.38902 | 108.70696 | 2539 ft | 161 kts | 47° |
| 2026-04-14 02:32 | 34.39626 | 108.71696 | 2319 ft | 156 kts | 48° |
| 2026-04-14 02:32 | 34.40340 | 108.72683 | 2125 ft | 156 kts | 48° |
| 2026-04-14 02:32 | 34.41059 | 108.73677 | 1902 ft | 157 kts | 48° |
| 2026-04-14 02:32 | 34.41781 | 108.74674 | 1708 ft | 158 kts | 47° |
| 2026-04-14 02:33 | 34.42506 | 108.75668 | 1585 ft | 152 kts | 48° |
| 2026-04-14 02:33 | 34.43141 | 108.76545 | 1581 ft | 122 kts | 49° |
| 2026-04-14 02:33 | 34.43622 | 108.77206 | 1580 ft | 87 kts | 49° |
| 2026-04-14 02:34 | 34.44107 | 108.77694 | 1583 ft | 24 kts | 323° |
| 2026-04-14 02:34 | 34.44121 | 108.77549 | 1582 ft | 19 kts | 223° |
| 2026-04-14 02:34 | 34.44022 | 108.77445 | 1582 ft | 19 kts | 226° |
| 2026-04-14 02:34 | 34.43922 | 108.77312 | 1582 ft | 27 kts | 228° |
| 2026-04-14 02:35 | 34.43793 | 108.77131 | 1581 ft | 28 kts | 231° |
| 2026-04-14 02:35 | 34.43754 | 108.76918 | 1580 ft | 28 kts | 252° |
| 2026-04-14 02:35 | 34.43628 | 108.76738 | 1580 ft | 28 kts | 228° |
| 2026-04-14 02:35 | 34.43559 | 108.76537 | 1579 ft | 28 kts | 280° |
| 2026-04-14 02:36 | 34.43567 | 108.76328 | 1579 ft | 28 kts | 322° |
| 2026-04-14 02:36 | 34.43593 | 108.76229 | 1579 ft | 7 kts | 232° |
| 2026-04-14 02:36 | 34.43585 | 108.76218 | 1579 ft | 0 kts | 229° |
| 2026-04-14 02:36 | 34.43580 | 108.76211 | 1579 ft | 0 kts | 229° |